<?xml version="1.0" encoding="UTF-8" standalone="no" ?>
<gpx version="1.0" xmlns="http://www.topografix.com/GPX/1/0" creator="US Topo Maps" xmlns:xsi="http://www.w3.org/2001/XMLSchema-instance" xsi:schemaLocation="http://www.topografix.com/GPX/1/0 http://www.topografix.com/GPX/1/0/gpx.xsd">
<name>Indian Creek Trail Hike.Pat.2023-11-09 15:26:59</name>
<trk>
<name>Indian Creek Trail Hike.Pat.2023-11-09 15:26:59</name>
<trkseg>
<trkpt lat="33.5635597" lon="-107.35279491">
<ele>1943.6</ele>
<time>2023-11-09T19:37:03Z</time>
<speed>1.5</speed>
</trkpt>
<trkpt lat="33.56355464" lon="-107.35274077">
<ele>1938.5</ele>
<time>2023-11-09T19:37:06Z</time>
<speed>0</speed>
</trkpt>
<trkpt lat="33.56359058" lon="-107.35272159">
<ele>1939.1</ele>
<time>2023-11-09T19:37:20Z</time>
<speed>0.9</speed>
</trkpt>
<trkpt lat="33.56363289" lon="-107.35271651">
<ele>1939.2</ele>
<time>2023-11-09T19:37:26Z</time>
<speed>0.9</speed>
</trkpt>
<trkpt lat="33.56367224" lon="-107.35271457">
<ele>1939.4</ele>
<time>2023-11-09T19:37:32Z</time>
<speed>0.5</speed>
</trkpt>
<trkpt lat="33.56369289" lon="-107.35275804">
<ele>1938.4</ele>
<time>2023-11-09T19:38:16Z</time>
<speed>1</speed>
</trkpt>
<trkpt lat="33.56368935" lon="-107.35280692">
<ele>1939.1</ele>
<time>2023-11-09T19:38:21Z</time>
<speed>0.6</speed>
</trkpt>
<trkpt lat="33.56368783" lon="-107.35285069">
<ele>1941.1</ele>
<time>2023-11-09T19:38:26Z</time>
<speed>0.9</speed>
</trkpt>
<trkpt lat="33.56368385" lon="-107.35289653">
<ele>1942.3</ele>
<time>2023-11-09T19:38:31Z</time>
<speed>0.9</speed>
</trkpt>
<trkpt lat="33.56368745" lon="-107.35294085">
<ele>1943.6</ele>
<time>2023-11-09T19:38:36Z</time>
<speed>0.9</speed>
</trkpt>
<trkpt lat="33.56368464" lon="-107.35299249">
<ele>1944</ele>
<time>2023-11-09T19:38:41Z</time>
<speed>1</speed>
</trkpt>
<trkpt lat="33.5636809" lon="-107.35304474">
<ele>1944.3</ele>
<time>2023-11-09T19:38:46Z</time>
<speed>1.1</speed>
</trkpt>
<trkpt lat="33.56367045" lon="-107.35309279">
<ele>1945.1</ele>
<time>2023-11-09T19:38:51Z</time>
<speed>0.9</speed>
</trkpt>
<trkpt lat="33.56367781" lon="-107.35314184">
<ele>1945.2</ele>
<time>2023-11-09T19:38:56Z</time>
<speed>1</speed>
</trkpt>
<trkpt lat="33.56370779" lon="-107.35317905">
<ele>1945.5</ele>
<time>2023-11-09T19:39:01Z</time>
<speed>0.9</speed>
</trkpt>
<trkpt lat="33.56372602" lon="-107.35321642">
<ele>1945.8</ele>
<time>2023-11-09T19:39:05Z</time>
<speed>1</speed>
</trkpt>
<trkpt lat="33.56374254" lon="-107.3532561">
<ele>1946.5</ele>
<time>2023-11-09T19:39:09Z</time>
<speed>1</speed>
</trkpt>
<trkpt lat="33.56375672" lon="-107.35329825">
<ele>1946.9</ele>
<time>2023-11-09T19:39:13Z</time>
<speed>0.9</speed>
</trkpt>
<trkpt lat="33.56377906" lon="-107.35334336">
<ele>1946.4</ele>
<time>2023-11-09T19:39:18Z</time>
<speed>0.8</speed>
</trkpt>
<trkpt lat="33.56607204" lon="-107.35564588">
<ele>2002</ele>
<time>2023-11-09T19:48:55Z</time>
<speed>0</speed>
</trkpt>
<trkpt lat="33.56607343" lon="-107.3555911">
<ele>1986.3</ele>
<time>2023-11-09T19:48:59Z</time>
<speed>0</speed>
</trkpt>
<trkpt lat="33.56603687" lon="-107.3555914">
<ele>1987.2</ele>
<time>2023-11-09T19:49:31Z</time>
<speed>0</speed>
</trkpt>
<trkpt lat="33.56607235" lon="-107.35558253">
<ele>1986.6</ele>
<time>2023-11-09T19:49:55Z</time>
<speed>1</speed>
</trkpt>
<trkpt lat="33.56611519" lon="-107.35558909">
<ele>1986.5</ele>
<time>2023-11-09T19:50:00Z</time>
<speed>1.2</speed>
</trkpt>
<trkpt lat="33.5661476" lon="-107.35556947">
<ele>1986.4</ele>
<time>2023-11-09T19:50:04Z</time>
<speed>1.2</speed>
</trkpt>
<trkpt lat="33.56618481" lon="-107.35554841">
<ele>1986.4</ele>
<time>2023-11-09T19:50:08Z</time>
<speed>1.1</speed>
</trkpt>
<trkpt lat="33.56621557" lon="-107.35552575">
<ele>1986.7</ele>
<time>2023-11-09T19:50:12Z</time>
<speed>0.6</speed>
</trkpt>
<trkpt lat="33.56625221" lon="-107.35552774">
<ele>1986.9</ele>
<time>2023-11-09T19:50:16Z</time>
<speed>1.1</speed>
</trkpt>
<trkpt lat="33.56629112" lon="-107.3555212">
<ele>1987.3</ele>
<time>2023-11-09T19:50:20Z</time>
<speed>1.1</speed>
</trkpt>
<trkpt lat="33.56633611" lon="-107.35551945">
<ele>1987.3</ele>
<time>2023-11-09T19:50:25Z</time>
<speed>1.2</speed>
</trkpt>
<trkpt lat="33.56637816" lon="-107.35550187">
<ele>1985.8</ele>
<time>2023-11-09T19:50:29Z</time>
<speed>1.2</speed>
</trkpt>
<trkpt lat="33.56641482" lon="-107.35548843">
<ele>1985.4</ele>
<time>2023-11-09T19:50:33Z</time>
<speed>1</speed>
</trkpt>
<trkpt lat="33.56645572" lon="-107.35549974">
<ele>1985.3</ele>
<time>2023-11-09T19:50:37Z</time>
<speed>1</speed>
</trkpt>
<trkpt lat="33.56649606" lon="-107.35549962">
<ele>1985.3</ele>
<time>2023-11-09T19:50:43Z</time>
<speed>0.7</speed>
</trkpt>
<trkpt lat="33.56653651" lon="-107.35548166">
<ele>1983.1</ele>
<time>2023-11-09T19:50:48Z</time>
<speed>0.8</speed>
</trkpt>
<trkpt lat="33.56658022" lon="-107.35549428">
<ele>1982.4</ele>
<time>2023-11-09T19:50:53Z</time>
<speed>1.1</speed>
</trkpt>
<trkpt lat="33.56661814" lon="-107.35551112">
<ele>1984.4</ele>
<time>2023-11-09T19:51:05Z</time>
<speed>0.7</speed>
</trkpt>
<trkpt lat="33.56666217" lon="-107.35550784">
<ele>1985.4</ele>
<time>2023-11-09T19:51:10Z</time>
<speed>1.1</speed>
</trkpt>
<trkpt lat="33.56670228" lon="-107.35550088">
<ele>1985.8</ele>
<time>2023-11-09T19:51:14Z</time>
<speed>1.1</speed>
</trkpt>
<trkpt lat="33.56674184" lon="-107.3554882">
<ele>1985.3</ele>
<time>2023-11-09T19:51:18Z</time>
<speed>1.1</speed>
</trkpt>
<trkpt lat="33.56678054" lon="-107.35550312">
<ele>1985.7</ele>
<time>2023-11-09T19:51:22Z</time>
<speed>1.1</speed>
</trkpt>
<trkpt lat="33.56681439" lon="-107.35553908">
<ele>1986.4</ele>
<time>2023-11-09T19:51:26Z</time>
<speed>1.2</speed>
</trkpt>
<trkpt lat="33.56684745" lon="-107.35555799">
<ele>1986.4</ele>
<time>2023-11-09T19:51:29Z</time>
<speed>1.3</speed>
</trkpt>
<trkpt lat="33.56688368" lon="-107.35556741">
<ele>1987</ele>
<time>2023-11-09T19:51:33Z</time>
<speed>1.1</speed>
</trkpt>
<trkpt lat="33.56692337" lon="-107.355584">
<ele>1987.3</ele>
<time>2023-11-09T19:51:38Z</time>
<speed>0.8</speed>
</trkpt>
<trkpt lat="33.56696419" lon="-107.35559391">
<ele>1987.8</ele>
<time>2023-11-09T19:51:43Z</time>
<speed>1</speed>
</trkpt>
<trkpt lat="33.56700893" lon="-107.35558833">
<ele>1987.4</ele>
<time>2023-11-09T19:51:47Z</time>
<speed>1.2</speed>
</trkpt>
<trkpt lat="33.56704609" lon="-107.35562032">
<ele>1987.7</ele>
<time>2023-11-09T19:51:51Z</time>
<speed>1.2</speed>
</trkpt>
<trkpt lat="33.5670875" lon="-107.35563355">
<ele>1987.7</ele>
<time>2023-11-09T19:51:55Z</time>
<speed>1.2</speed>
</trkpt>
<trkpt lat="33.56712519" lon="-107.35562148">
<ele>1988.6</ele>
<time>2023-11-09T19:51:59Z</time>
<speed>1.2</speed>
</trkpt>
<trkpt lat="33.56716947" lon="-107.35563467">
<ele>1988.5</ele>
<time>2023-11-09T19:52:03Z</time>
<speed>1.2</speed>
</trkpt>
<trkpt lat="33.56721396" lon="-107.35564154">
<ele>1988.9</ele>
<time>2023-11-09T19:52:07Z</time>
<speed>1.2</speed>
</trkpt>
<trkpt lat="33.56725863" lon="-107.35564239">
<ele>1988.2</ele>
<time>2023-11-09T19:52:11Z</time>
<speed>1.2</speed>
</trkpt>
<trkpt lat="33.56729725" lon="-107.35566134">
<ele>1988.7</ele>
<time>2023-11-09T19:52:15Z</time>
<speed>1.2</speed>
</trkpt>
<trkpt lat="33.56732793" lon="-107.35568642">
<ele>1989</ele>
<time>2023-11-09T19:52:19Z</time>
<speed>1.1</speed>
</trkpt>
<trkpt lat="33.56735466" lon="-107.35572211">
<ele>1989.1</ele>
<time>2023-11-09T19:52:23Z</time>
<speed>1.1</speed>
</trkpt>
<trkpt lat="33.56738528" lon="-107.35575424">
<ele>1989</ele>
<time>2023-11-09T19:52:28Z</time>
<speed>1</speed>
</trkpt>
<trkpt lat="33.5674188" lon="-107.35577849">
<ele>1988.4</ele>
<time>2023-11-09T19:52:32Z</time>
<speed>1.1</speed>
</trkpt>
<trkpt lat="33.56742387" lon="-107.35582194">
<ele>1987.8</ele>
<time>2023-11-09T19:52:36Z</time>
<speed>1.3</speed>
</trkpt>
<trkpt lat="33.56744762" lon="-107.35586608">
<ele>1988.8</ele>
<time>2023-11-09T19:52:40Z</time>
<speed>1.2</speed>
</trkpt>
<trkpt lat="33.56748752" lon="-107.35588646">
<ele>1988.7</ele>
<time>2023-11-09T19:52:44Z</time>
<speed>1.1</speed>
</trkpt>
<trkpt lat="33.56751865" lon="-107.35592157">
<ele>1989.2</ele>
<time>2023-11-09T19:52:48Z</time>
<speed>1.1</speed>
</trkpt>
<trkpt lat="33.56755873" lon="-107.35594085">
<ele>1989.3</ele>
<time>2023-11-09T19:52:52Z</time>
<speed>1.2</speed>
</trkpt>
<trkpt lat="33.56760516" lon="-107.35593525">
<ele>1989</ele>
<time>2023-11-09T19:52:56Z</time>
<speed>1.1</speed>
</trkpt>
<trkpt lat="33.56764644" lon="-107.35591388">
<ele>1989.1</ele>
<time>2023-11-09T19:53:00Z</time>
<speed>1</speed>
</trkpt>
<trkpt lat="33.56768522" lon="-107.35590981">
<ele>1989.9</ele>
<time>2023-11-09T19:53:04Z</time>
<speed>1</speed>
</trkpt>
<trkpt lat="33.56772751" lon="-107.35590642">
<ele>1990.2</ele>
<time>2023-11-09T19:53:08Z</time>
<speed>1</speed>
</trkpt>
<trkpt lat="33.56776571" lon="-107.35591117">
<ele>1990.7</ele>
<time>2023-11-09T19:53:12Z</time>
<speed>1.1</speed>
</trkpt>
<trkpt lat="33.56780439" lon="-107.35591764">
<ele>1991.1</ele>
<time>2023-11-09T19:53:16Z</time>
<speed>1.1</speed>
</trkpt>
<trkpt lat="33.56784385" lon="-107.35593283">
<ele>1990.8</ele>
<time>2023-11-09T19:53:20Z</time>
<speed>1.1</speed>
</trkpt>
<trkpt lat="33.5678867" lon="-107.35593313">
<ele>1991.1</ele>
<time>2023-11-09T19:53:24Z</time>
<speed>1.1</speed>
</trkpt>
<trkpt lat="33.56792093" lon="-107.35595124">
<ele>1991.4</ele>
<time>2023-11-09T19:53:28Z</time>
<speed>1.1</speed>
</trkpt>
<trkpt lat="33.56795325" lon="-107.35597566">
<ele>1990.8</ele>
<time>2023-11-09T19:53:32Z</time>
<speed>0.9</speed>
</trkpt>
<trkpt lat="33.56798179" lon="-107.35600556">
<ele>1990.2</ele>
<time>2023-11-09T19:53:38Z</time>
<speed>0.5</speed>
</trkpt>
<trkpt lat="33.56801554" lon="-107.35603307">
<ele>1991.9</ele>
<time>2023-11-09T19:56:04Z</time>
<speed>1</speed>
</trkpt>
<trkpt lat="33.56804925" lon="-107.35606685">
<ele>1991.9</ele>
<time>2023-11-09T19:56:09Z</time>
<speed>1</speed>
</trkpt>
<trkpt lat="33.56808278" lon="-107.35609176">
<ele>1991.7</ele>
<time>2023-11-09T19:56:13Z</time>
<speed>1.1</speed>
</trkpt>
<trkpt lat="33.56811473" lon="-107.35612549">
<ele>1991.8</ele>
<time>2023-11-09T19:56:17Z</time>
<speed>1.2</speed>
</trkpt>
<trkpt lat="33.56815179" lon="-107.3561545">
<ele>1992.1</ele>
<time>2023-11-09T19:56:21Z</time>
<speed>1.2</speed>
</trkpt>
<trkpt lat="33.5681876" lon="-107.35618741">
<ele>1992.8</ele>
<time>2023-11-09T19:56:26Z</time>
<speed>1.1</speed>
</trkpt>
<trkpt lat="33.5682187" lon="-107.35621311">
<ele>1992.9</ele>
<time>2023-11-09T19:56:32Z</time>
<speed>0.6</speed>
</trkpt>
<trkpt lat="33.56825177" lon="-107.35623357">
<ele>1992</ele>
<time>2023-11-09T19:56:40Z</time>
<speed>1.1</speed>
</trkpt>
<trkpt lat="33.56829842" lon="-107.35623007">
<ele>1991.5</ele>
<time>2023-11-09T19:56:44Z</time>
<speed>1.4</speed>
</trkpt>
<trkpt lat="33.56833591" lon="-107.35622756">
<ele>1991.4</ele>
<time>2023-11-09T19:56:47Z</time>
<speed>1.3</speed>
</trkpt>
<trkpt lat="33.5683833" lon="-107.35623404">
<ele>1991.6</ele>
<time>2023-11-09T19:56:51Z</time>
<speed>1.3</speed>
</trkpt>
<trkpt lat="33.56842724" lon="-107.35624653">
<ele>1992.1</ele>
<time>2023-11-09T19:56:55Z</time>
<speed>1.2</speed>
</trkpt>
<trkpt lat="33.56846337" lon="-107.3562613">
<ele>1992.2</ele>
<time>2023-11-09T19:56:59Z</time>
<speed>1.2</speed>
</trkpt>
<trkpt lat="33.56850514" lon="-107.35624558">
<ele>1993.2</ele>
<time>2023-11-09T19:57:04Z</time>
<speed>1</speed>
</trkpt>
<trkpt lat="33.56854652" lon="-107.35623953">
<ele>1992.9</ele>
<time>2023-11-09T19:57:08Z</time>
<speed>1.2</speed>
</trkpt>
<trkpt lat="33.56859195" lon="-107.35624755">
<ele>1992.6</ele>
<time>2023-11-09T19:57:12Z</time>
<speed>1.3</speed>
</trkpt>
<trkpt lat="33.56863239" lon="-107.35625706">
<ele>1992.7</ele>
<time>2023-11-09T19:57:17Z</time>
<speed>1.1</speed>
</trkpt>
<trkpt lat="33.56867462" lon="-107.356248">
<ele>1992.9</ele>
<time>2023-11-09T19:57:21Z</time>
<speed>1.1</speed>
</trkpt>
<trkpt lat="33.56871296" lon="-107.35626874">
<ele>1993</ele>
<time>2023-11-09T19:57:25Z</time>
<speed>1.2</speed>
</trkpt>
<trkpt lat="33.56875478" lon="-107.35628786">
<ele>1992.8</ele>
<time>2023-11-09T19:57:28Z</time>
<speed>1.5</speed>
</trkpt>
<trkpt lat="33.5687914" lon="-107.35628499">
<ele>1993</ele>
<time>2023-11-09T19:57:31Z</time>
<speed>1.1</speed>
</trkpt>
<trkpt lat="33.56882646" lon="-107.35629662">
<ele>1994.5</ele>
<time>2023-11-09T19:57:35Z</time>
<speed>1.1</speed>
</trkpt>
<trkpt lat="33.56886235" lon="-107.35631909">
<ele>1994.1</ele>
<time>2023-11-09T19:57:39Z</time>
<speed>1.1</speed>
</trkpt>
<trkpt lat="33.56890317" lon="-107.35633079">
<ele>1994.9</ele>
<time>2023-11-09T19:57:43Z</time>
<speed>1.1</speed>
</trkpt>
<trkpt lat="33.5689392" lon="-107.35633628">
<ele>1995.9</ele>
<time>2023-11-09T19:57:47Z</time>
<speed>1.4</speed>
</trkpt>
<trkpt lat="33.5689784" lon="-107.35633985">
<ele>1996.8</ele>
<time>2023-11-09T19:57:51Z</time>
<speed>1.1</speed>
</trkpt>
<trkpt lat="33.56902127" lon="-107.35634169">
<ele>1996</ele>
<time>2023-11-09T19:57:56Z</time>
<speed>0.9</speed>
</trkpt>
<trkpt lat="33.56906006" lon="-107.35634826">
<ele>1995.8</ele>
<time>2023-11-09T19:58:00Z</time>
<speed>1</speed>
</trkpt>
<trkpt lat="33.56910003" lon="-107.35634062">
<ele>1997</ele>
<time>2023-11-09T19:58:04Z</time>
<speed>1</speed>
</trkpt>
<trkpt lat="33.56914315" lon="-107.35632741">
<ele>1997.1</ele>
<time>2023-11-09T19:58:08Z</time>
<speed>1.2</speed>
</trkpt>
<trkpt lat="33.5691813" lon="-107.35632147">
<ele>1996</ele>
<time>2023-11-09T19:58:12Z</time>
<speed>1.1</speed>
</trkpt>
<trkpt lat="33.56921759" lon="-107.35632406">
<ele>1995.9</ele>
<time>2023-11-09T19:58:16Z</time>
<speed>0.9</speed>
</trkpt>
<trkpt lat="33.5692628" lon="-107.35634294">
<ele>1996.9</ele>
<time>2023-11-09T19:58:20Z</time>
<speed>1.4</speed>
</trkpt>
<trkpt lat="33.56930794" lon="-107.35633129">
<ele>1998.4</ele>
<time>2023-11-09T19:58:24Z</time>
<speed>1.1</speed>
</trkpt>
<trkpt lat="33.56935286" lon="-107.35634092">
<ele>1999.2</ele>
<time>2023-11-09T19:58:28Z</time>
<speed>1.2</speed>
</trkpt>
<trkpt lat="33.56938894" lon="-107.35635597">
<ele>1998.8</ele>
<time>2023-11-09T19:58:32Z</time>
<speed>1.1</speed>
</trkpt>
<trkpt lat="33.56942791" lon="-107.35638233">
<ele>1999.2</ele>
<time>2023-11-09T19:58:37Z</time>
<speed>1.1</speed>
</trkpt>
<trkpt lat="33.56946642" lon="-107.35639862">
<ele>1999.6</ele>
<time>2023-11-09T19:58:41Z</time>
<speed>1.1</speed>
</trkpt>
<trkpt lat="33.56950936" lon="-107.3564119">
<ele>2000.1</ele>
<time>2023-11-09T19:58:45Z</time>
<speed>1.4</speed>
</trkpt>
<trkpt lat="33.56955054" lon="-107.35641169">
<ele>2000.5</ele>
<time>2023-11-09T19:58:49Z</time>
<speed>1.2</speed>
</trkpt>
<trkpt lat="33.56959445" lon="-107.35640807">
<ele>2001.7</ele>
<time>2023-11-09T19:58:55Z</time>
<speed>1</speed>
</trkpt>
<trkpt lat="33.56963791" lon="-107.35640824">
<ele>2002.5</ele>
<time>2023-11-09T19:59:00Z</time>
<speed>1</speed>
</trkpt>
<trkpt lat="33.56967418" lon="-107.35639826">
<ele>2002.6</ele>
<time>2023-11-09T19:59:04Z</time>
<speed>1</speed>
</trkpt>
<trkpt lat="33.569709" lon="-107.35637375">
<ele>2002.4</ele>
<time>2023-11-09T19:59:08Z</time>
<speed>1</speed>
</trkpt>
<trkpt lat="33.56974637" lon="-107.3563568">
<ele>2002.6</ele>
<time>2023-11-09T19:59:12Z</time>
<speed>1.1</speed>
</trkpt>
<trkpt lat="33.56978488" lon="-107.35634664">
<ele>2002.8</ele>
<time>2023-11-09T19:59:16Z</time>
<speed>1.1</speed>
</trkpt>
<trkpt lat="33.56982595" lon="-107.35633561">
<ele>2002.8</ele>
<time>2023-11-09T19:59:20Z</time>
<speed>1.1</speed>
</trkpt>
<trkpt lat="33.569867" lon="-107.35632143">
<ele>2002.8</ele>
<time>2023-11-09T19:59:24Z</time>
<speed>1.2</speed>
</trkpt>
<trkpt lat="33.56990431" lon="-107.35630396">
<ele>2002.6</ele>
<time>2023-11-09T19:59:28Z</time>
<speed>1.1</speed>
</trkpt>
<trkpt lat="33.56994334" lon="-107.35629181">
<ele>2002.7</ele>
<time>2023-11-09T19:59:32Z</time>
<speed>1.1</speed>
</trkpt>
<trkpt lat="33.56998465" lon="-107.3562917">
<ele>2003</ele>
<time>2023-11-09T19:59:36Z</time>
<speed>1.1</speed>
</trkpt>
<trkpt lat="33.57002194" lon="-107.35628717">
<ele>2003.6</ele>
<time>2023-11-09T19:59:40Z</time>
<speed>1.2</speed>
</trkpt>
<trkpt lat="33.57006051" lon="-107.35629018">
<ele>2003.9</ele>
<time>2023-11-09T19:59:44Z</time>
<speed>1.1</speed>
</trkpt>
<trkpt lat="33.57010334" lon="-107.3562722">
<ele>2003.9</ele>
<time>2023-11-09T19:59:49Z</time>
<speed>1</speed>
</trkpt>
<trkpt lat="33.57014812" lon="-107.35626998">
<ele>2004.8</ele>
<time>2023-11-09T19:59:54Z</time>
<speed>1.1</speed>
</trkpt>
<trkpt lat="33.57018227" lon="-107.35628571">
<ele>2005.6</ele>
<time>2023-11-09T19:59:58Z</time>
<speed>1.1</speed>
</trkpt>
<trkpt lat="33.57022221" lon="-107.35629863">
<ele>2005.9</ele>
<time>2023-11-09T20:00:02Z</time>
<speed>1.1</speed>
</trkpt>
<trkpt lat="33.57025946" lon="-107.35630338">
<ele>2007.1</ele>
<time>2023-11-09T20:00:06Z</time>
<speed>1.1</speed>
</trkpt>
<trkpt lat="33.57029735" lon="-107.35630044">
<ele>2007.2</ele>
<time>2023-11-09T20:00:10Z</time>
<speed>1.1</speed>
</trkpt>
<trkpt lat="33.57033892" lon="-107.35629859">
<ele>2007.7</ele>
<time>2023-11-09T20:00:14Z</time>
<speed>1.1</speed>
</trkpt>
<trkpt lat="33.57038136" lon="-107.35630106">
<ele>2008.5</ele>
<time>2023-11-09T20:00:18Z</time>
<speed>1.1</speed>
</trkpt>
<trkpt lat="33.57042287" lon="-107.3563006">
<ele>2009</ele>
<time>2023-11-09T20:00:22Z</time>
<speed>1.1</speed>
</trkpt>
<trkpt lat="33.5704665" lon="-107.35630315">
<ele>2009.8</ele>
<time>2023-11-09T20:00:27Z</time>
<speed>1</speed>
</trkpt>
<trkpt lat="33.57051128" lon="-107.35629579">
<ele>2010.3</ele>
<time>2023-11-09T20:00:32Z</time>
<speed>1.1</speed>
</trkpt>
<trkpt lat="33.57054575" lon="-107.35627328">
<ele>2010.9</ele>
<time>2023-11-09T20:00:36Z</time>
<speed>0.9</speed>
</trkpt>
<trkpt lat="33.57058983" lon="-107.35625852">
<ele>2011.4</ele>
<time>2023-11-09T20:01:41Z</time>
<speed>1.2</speed>
</trkpt>
<trkpt lat="33.57063177" lon="-107.35625136">
<ele>2010</ele>
<time>2023-11-09T20:01:53Z</time>
<speed>0.9</speed>
</trkpt>
<trkpt lat="33.57066813" lon="-107.3562595">
<ele>2008.7</ele>
<time>2023-11-09T20:02:47Z</time>
<speed>0.9</speed>
</trkpt>
<trkpt lat="33.57070903" lon="-107.3562614">
<ele>2008.5</ele>
<time>2023-11-09T20:02:52Z</time>
<speed>1.1</speed>
</trkpt>
<trkpt lat="33.57075016" lon="-107.3562622">
<ele>2008.8</ele>
<time>2023-11-09T20:02:56Z</time>
<speed>1.1</speed>
</trkpt>
<trkpt lat="33.57079216" lon="-107.35626556">
<ele>2009.1</ele>
<time>2023-11-09T20:03:00Z</time>
<speed>1.1</speed>
</trkpt>
<trkpt lat="33.57083324" lon="-107.35627205">
<ele>2009</ele>
<time>2023-11-09T20:03:05Z</time>
<speed>0.6</speed>
</trkpt>
<trkpt lat="33.57087128" lon="-107.35625765">
<ele>2009.4</ele>
<time>2023-11-09T20:03:28Z</time>
<speed>1.6</speed>
</trkpt>
<trkpt lat="33.57091521" lon="-107.35624821">
<ele>2009.9</ele>
<time>2023-11-09T20:03:33Z</time>
<speed>0.9</speed>
</trkpt>
<trkpt lat="33.57095964" lon="-107.35626312">
<ele>2010.3</ele>
<time>2023-11-09T20:03:38Z</time>
<speed>1.1</speed>
</trkpt>
<trkpt lat="33.5710023" lon="-107.35627145">
<ele>2010.8</ele>
<time>2023-11-09T20:03:42Z</time>
<speed>1.1</speed>
</trkpt>
<trkpt lat="33.57104396" lon="-107.35628462">
<ele>2010.4</ele>
<time>2023-11-09T20:03:46Z</time>
<speed>1.2</speed>
</trkpt>
<trkpt lat="33.57108506" lon="-107.35628928">
<ele>2010.8</ele>
<time>2023-11-09T20:03:50Z</time>
<speed>1.1</speed>
</trkpt>
<trkpt lat="33.57112215" lon="-107.3562853">
<ele>2011.6</ele>
<time>2023-11-09T20:03:54Z</time>
<speed>0.9</speed>
</trkpt>
<trkpt lat="33.57115767" lon="-107.35630955">
<ele>2012.6</ele>
<time>2023-11-09T20:03:59Z</time>
<speed>1</speed>
</trkpt>
<trkpt lat="33.57119632" lon="-107.35632302">
<ele>2013.2</ele>
<time>2023-11-09T20:04:04Z</time>
<speed>1</speed>
</trkpt>
<trkpt lat="33.57123594" lon="-107.3563403">
<ele>2015</ele>
<time>2023-11-09T20:04:09Z</time>
<speed>1</speed>
</trkpt>
<trkpt lat="33.57127247" lon="-107.35634413">
<ele>2015.1</ele>
<time>2023-11-09T20:04:13Z</time>
<speed>1.1</speed>
</trkpt>
<trkpt lat="33.57131205" lon="-107.35634439">
<ele>2015.3</ele>
<time>2023-11-09T20:04:17Z</time>
<speed>1</speed>
</trkpt>
<trkpt lat="33.57134298" lon="-107.35636727">
<ele>2015.2</ele>
<time>2023-11-09T20:04:21Z</time>
<speed>0.9</speed>
</trkpt>
<trkpt lat="33.57137512" lon="-107.35639097">
<ele>2015.6</ele>
<time>2023-11-09T20:04:25Z</time>
<speed>1</speed>
</trkpt>
<trkpt lat="33.57140518" lon="-107.35642251">
<ele>2015.8</ele>
<time>2023-11-09T20:04:29Z</time>
<speed>1.2</speed>
</trkpt>
<trkpt lat="33.57143639" lon="-107.3564594">
<ele>2016.5</ele>
<time>2023-11-09T20:04:33Z</time>
<speed>1.1</speed>
</trkpt>
<trkpt lat="33.57146385" lon="-107.35649387">
<ele>2016.2</ele>
<time>2023-11-09T20:04:37Z</time>
<speed>1.2</speed>
</trkpt>
<trkpt lat="33.57150256" lon="-107.35651628">
<ele>2016.3</ele>
<time>2023-11-09T20:04:41Z</time>
<speed>1.2</speed>
</trkpt>
<trkpt lat="33.57153773" lon="-107.35654108">
<ele>2016.5</ele>
<time>2023-11-09T20:04:45Z</time>
<speed>1.1</speed>
</trkpt>
<trkpt lat="33.57157418" lon="-107.35656633">
<ele>2016.9</ele>
<time>2023-11-09T20:04:49Z</time>
<speed>1.2</speed>
</trkpt>
<trkpt lat="33.5716133" lon="-107.35659003">
<ele>2017.1</ele>
<time>2023-11-09T20:04:53Z</time>
<speed>1.1</speed>
</trkpt>
<trkpt lat="33.57165401" lon="-107.35661899">
<ele>2017.7</ele>
<time>2023-11-09T20:04:57Z</time>
<speed>1.2</speed>
</trkpt>
<trkpt lat="33.57169044" lon="-107.3566404">
<ele>2018</ele>
<time>2023-11-09T20:05:01Z</time>
<speed>1.1</speed>
</trkpt>
<trkpt lat="33.5717251" lon="-107.35666569">
<ele>2018.5</ele>
<time>2023-11-09T20:05:05Z</time>
<speed>1.2</speed>
</trkpt>
<trkpt lat="33.57176183" lon="-107.35669052">
<ele>2019.4</ele>
<time>2023-11-09T20:05:09Z</time>
<speed>1.2</speed>
</trkpt>
<trkpt lat="33.57179853" lon="-107.35671096">
<ele>2019.1</ele>
<time>2023-11-09T20:05:13Z</time>
<speed>1.1</speed>
</trkpt>
<trkpt lat="33.57183559" lon="-107.35673725">
<ele>2019.8</ele>
<time>2023-11-09T20:05:17Z</time>
<speed>1.1</speed>
</trkpt>
<trkpt lat="33.57187393" lon="-107.35675953">
<ele>2019.8</ele>
<time>2023-11-09T20:05:21Z</time>
<speed>1.1</speed>
</trkpt>
<trkpt lat="33.57190652" lon="-107.35678881">
<ele>2020.7</ele>
<time>2023-11-09T20:05:25Z</time>
<speed>1.1</speed>
</trkpt>
<trkpt lat="33.57193417" lon="-107.35682602">
<ele>2021.1</ele>
<time>2023-11-09T20:05:30Z</time>
<speed>0.8</speed>
</trkpt>
<trkpt lat="33.57196602" lon="-107.35685877">
<ele>2021.6</ele>
<time>2023-11-09T20:05:35Z</time>
<speed>0.9</speed>
</trkpt>
<trkpt lat="33.57199739" lon="-107.35688229">
<ele>2022.1</ele>
<time>2023-11-09T20:05:39Z</time>
<speed>1</speed>
</trkpt>
<trkpt lat="33.57203476" lon="-107.35690115">
<ele>2022.2</ele>
<time>2023-11-09T20:05:43Z</time>
<speed>1.1</speed>
</trkpt>
<trkpt lat="33.57207313" lon="-107.3569098">
<ele>2022.5</ele>
<time>2023-11-09T20:05:47Z</time>
<speed>1.2</speed>
</trkpt>
<trkpt lat="33.57211005" lon="-107.35690824">
<ele>2022.3</ele>
<time>2023-11-09T20:05:51Z</time>
<speed>1.1</speed>
</trkpt>
<trkpt lat="33.57215174" lon="-107.35689627">
<ele>2021.9</ele>
<time>2023-11-09T20:05:55Z</time>
<speed>1.1</speed>
</trkpt>
<trkpt lat="33.57219465" lon="-107.35688552">
<ele>2022.4</ele>
<time>2023-11-09T20:05:59Z</time>
<speed>1.1</speed>
</trkpt>
<trkpt lat="33.57223588" lon="-107.35687128">
<ele>2022.7</ele>
<time>2023-11-09T20:06:03Z</time>
<speed>1</speed>
</trkpt>
<trkpt lat="33.5722715" lon="-107.35686185">
<ele>2022.6</ele>
<time>2023-11-09T20:06:08Z</time>
<speed>0.7</speed>
</trkpt>
<trkpt lat="33.57230778" lon="-107.35686971">
<ele>2022.8</ele>
<time>2023-11-09T20:06:14Z</time>
<speed>0.5</speed>
</trkpt>
<trkpt lat="33.5723438" lon="-107.35686088">
<ele>2021.6</ele>
<time>2023-11-09T20:06:20Z</time>
<speed>0.8</speed>
</trkpt>
<trkpt lat="33.5723785" lon="-107.35683527">
<ele>2021</ele>
<time>2023-11-09T20:06:24Z</time>
<speed>1</speed>
</trkpt>
<trkpt lat="33.5724157" lon="-107.35681253">
<ele>2021.8</ele>
<time>2023-11-09T20:06:28Z</time>
<speed>1</speed>
</trkpt>
<trkpt lat="33.57245162" lon="-107.35679593">
<ele>2022.1</ele>
<time>2023-11-09T20:06:32Z</time>
<speed>1.1</speed>
</trkpt>
<trkpt lat="33.57248904" lon="-107.35680928">
<ele>2022.3</ele>
<time>2023-11-09T20:06:36Z</time>
<speed>1</speed>
</trkpt>
<trkpt lat="33.57252361" lon="-107.35683189">
<ele>2022.2</ele>
<time>2023-11-09T20:06:40Z</time>
<speed>1.1</speed>
</trkpt>
<trkpt lat="33.57256421" lon="-107.35685041">
<ele>2023.1</ele>
<time>2023-11-09T20:06:45Z</time>
<speed>0.9</speed>
</trkpt>
<trkpt lat="33.57260825" lon="-107.35685887">
<ele>2023.6</ele>
<time>2023-11-09T20:06:50Z</time>
<speed>1</speed>
</trkpt>
<trkpt lat="33.57264609" lon="-107.35687231">
<ele>2023.8</ele>
<time>2023-11-09T20:06:54Z</time>
<speed>1</speed>
</trkpt>
<trkpt lat="33.57268196" lon="-107.35689147">
<ele>2024.2</ele>
<time>2023-11-09T20:06:58Z</time>
<speed>1</speed>
</trkpt>
<trkpt lat="33.57271733" lon="-107.35690747">
<ele>2024.6</ele>
<time>2023-11-09T20:07:02Z</time>
<speed>1</speed>
</trkpt>
<trkpt lat="33.57275193" lon="-107.35692093">
<ele>2024.9</ele>
<time>2023-11-09T20:07:06Z</time>
<speed>1</speed>
</trkpt>
<trkpt lat="33.57278866" lon="-107.35692712">
<ele>2025</ele>
<time>2023-11-09T20:07:10Z</time>
<speed>1.2</speed>
</trkpt>
<trkpt lat="33.57283149" lon="-107.35693317">
<ele>2025.2</ele>
<time>2023-11-09T20:07:15Z</time>
<speed>1</speed>
</trkpt>
<trkpt lat="33.57287107" lon="-107.35694188">
<ele>2025</ele>
<time>2023-11-09T20:07:20Z</time>
<speed>1</speed>
</trkpt>
<trkpt lat="33.57290771" lon="-107.35696561">
<ele>2025.5</ele>
<time>2023-11-09T20:07:25Z</time>
<speed>1</speed>
</trkpt>
<trkpt lat="33.57292387" lon="-107.35700644">
<ele>2026.2</ele>
<time>2023-11-09T20:07:29Z</time>
<speed>1.1</speed>
</trkpt>
<trkpt lat="33.57296621" lon="-107.35702601">
<ele>2026.4</ele>
<time>2023-11-09T20:07:34Z</time>
<speed>1.1</speed>
</trkpt>
<trkpt lat="33.57300904" lon="-107.35702866">
<ele>2026.8</ele>
<time>2023-11-09T20:07:38Z</time>
<speed>1</speed>
</trkpt>
<trkpt lat="33.57304531" lon="-107.35703069">
<ele>2026.8</ele>
<time>2023-11-09T20:07:43Z</time>
<speed>1</speed>
</trkpt>
<trkpt lat="33.57308475" lon="-107.35705353">
<ele>2027.3</ele>
<time>2023-11-09T20:07:48Z</time>
<speed>0.9</speed>
</trkpt>
<trkpt lat="33.5731087" lon="-107.35702106">
<ele>2029.6</ele>
<time>2023-11-09T20:08:16Z</time>
<speed>0</speed>
</trkpt>
<trkpt lat="33.5731153" lon="-107.35706523">
<ele>2029</ele>
<time>2023-11-09T20:09:30Z</time>
<speed>1.1</speed>
</trkpt>
<trkpt lat="33.57315466" lon="-107.35709539">
<ele>2028.3</ele>
<time>2023-11-09T20:09:34Z</time>
<speed>1.1</speed>
</trkpt>
<trkpt lat="33.57319261" lon="-107.35712336">
<ele>2028.6</ele>
<time>2023-11-09T20:09:38Z</time>
<speed>1.1</speed>
</trkpt>
<trkpt lat="33.57322908" lon="-107.35715751">
<ele>2029.4</ele>
<time>2023-11-09T20:09:42Z</time>
<speed>1.2</speed>
</trkpt>
<trkpt lat="33.57326605" lon="-107.35718861">
<ele>2030.3</ele>
<time>2023-11-09T20:09:46Z</time>
<speed>1.1</speed>
</trkpt>
<trkpt lat="33.57329556" lon="-107.35721466">
<ele>2031</ele>
<time>2023-11-09T20:09:49Z</time>
<speed>1.1</speed>
</trkpt>
<trkpt lat="33.57334198" lon="-107.35722445">
<ele>2031.3</ele>
<time>2023-11-09T20:09:53Z</time>
<speed>1.2</speed>
</trkpt>
<trkpt lat="33.57338571" lon="-107.35722621">
<ele>2032.1</ele>
<time>2023-11-09T20:09:57Z</time>
<speed>1.2</speed>
</trkpt>
<trkpt lat="33.57342667" lon="-107.35724103">
<ele>2032.3</ele>
<time>2023-11-09T20:10:01Z</time>
<speed>1.1</speed>
</trkpt>
<trkpt lat="33.57346457" lon="-107.35725256">
<ele>2032.7</ele>
<time>2023-11-09T20:10:04Z</time>
<speed>1.3</speed>
</trkpt>
<trkpt lat="33.57349879" lon="-107.3572669">
<ele>2033.2</ele>
<time>2023-11-09T20:10:07Z</time>
<speed>1.2</speed>
</trkpt>
<trkpt lat="33.57353138" lon="-107.35728651">
<ele>2034.2</ele>
<time>2023-11-09T20:10:10Z</time>
<speed>1.3</speed>
</trkpt>
<trkpt lat="33.57356626" lon="-107.35729979">
<ele>2035</ele>
<time>2023-11-09T20:10:13Z</time>
<speed>1.2</speed>
</trkpt>
<trkpt lat="33.57360316" lon="-107.35732792">
<ele>2035.5</ele>
<time>2023-11-09T20:10:17Z</time>
<speed>1.2</speed>
</trkpt>
<trkpt lat="33.57363381" lon="-107.35735452">
<ele>2034</ele>
<time>2023-11-09T20:10:21Z</time>
<speed>1.2</speed>
</trkpt>
<trkpt lat="33.57366995" lon="-107.35737806">
<ele>2034.9</ele>
<time>2023-11-09T20:10:25Z</time>
<speed>1.2</speed>
</trkpt>
<trkpt lat="33.57371479" lon="-107.35739948">
<ele>2036.2</ele>
<time>2023-11-09T20:10:29Z</time>
<speed>1.2</speed>
</trkpt>
<trkpt lat="33.57376058" lon="-107.35741698">
<ele>2037.6</ele>
<time>2023-11-09T20:10:33Z</time>
<speed>1.2</speed>
</trkpt>
<trkpt lat="33.57380422" lon="-107.35743549">
<ele>2038.4</ele>
<time>2023-11-09T20:10:37Z</time>
<speed>1.2</speed>
</trkpt>
<trkpt lat="33.57384248" lon="-107.35745951">
<ele>2038.9</ele>
<time>2023-11-09T20:10:41Z</time>
<speed>1.2</speed>
</trkpt>
<trkpt lat="33.57387692" lon="-107.35748093">
<ele>2037.5</ele>
<time>2023-11-09T20:10:45Z</time>
<speed>1.1</speed>
</trkpt>
<trkpt lat="33.57390899" lon="-107.3575033">
<ele>2038</ele>
<time>2023-11-09T20:10:49Z</time>
<speed>1.2</speed>
</trkpt>
<trkpt lat="33.57393363" lon="-107.35754209">
<ele>2037.5</ele>
<time>2023-11-09T20:10:53Z</time>
<speed>1.3</speed>
</trkpt>
<trkpt lat="33.57396976" lon="-107.35757589">
<ele>2038.2</ele>
<time>2023-11-09T20:10:57Z</time>
<speed>1.1</speed>
</trkpt>
<trkpt lat="33.57399759" lon="-107.35762125">
<ele>2039.7</ele>
<time>2023-11-09T20:11:01Z</time>
<speed>1.2</speed>
</trkpt>
<trkpt lat="33.57402105" lon="-107.35765693">
<ele>2040.2</ele>
<time>2023-11-09T20:11:05Z</time>
<speed>1.1</speed>
</trkpt>
<trkpt lat="33.57406271" lon="-107.3576775">
<ele>2041.3</ele>
<time>2023-11-09T20:11:09Z</time>
<speed>1.3</speed>
</trkpt>
<trkpt lat="33.57410003" lon="-107.35768255">
<ele>2041.2</ele>
<time>2023-11-09T20:11:12Z</time>
<speed>1.2</speed>
</trkpt>
<trkpt lat="33.57414267" lon="-107.35769414">
<ele>2040.6</ele>
<time>2023-11-09T20:11:16Z</time>
<speed>1.1</speed>
</trkpt>
<trkpt lat="33.57418694" lon="-107.35770031">
<ele>2041.4</ele>
<time>2023-11-09T20:11:21Z</time>
<speed>1</speed>
</trkpt>
<trkpt lat="33.57422376" lon="-107.35768724">
<ele>2040.9</ele>
<time>2023-11-09T20:11:26Z</time>
<speed>0.8</speed>
</trkpt>
<trkpt lat="33.57425881" lon="-107.35770491">
<ele>2042.5</ele>
<time>2023-11-09T20:11:31Z</time>
<speed>0.8</speed>
</trkpt>
<trkpt lat="33.57427733" lon="-107.35774545">
<ele>2043.2</ele>
<time>2023-11-09T20:11:43Z</time>
<speed>0.6</speed>
</trkpt>
<trkpt lat="33.57430725" lon="-107.35777562">
<ele>2043.4</ele>
<time>2023-11-09T20:11:52Z</time>
<speed>0.6</speed>
</trkpt>
<trkpt lat="33.57434726" lon="-107.35777668">
<ele>2044.4</ele>
<time>2023-11-09T20:12:00Z</time>
<speed>1</speed>
</trkpt>
<trkpt lat="33.57438998" lon="-107.35777295">
<ele>2043.6</ele>
<time>2023-11-09T20:12:04Z</time>
<speed>1</speed>
</trkpt>
<trkpt lat="33.57442503" lon="-107.357799">
<ele>2044.9</ele>
<time>2023-11-09T20:12:09Z</time>
<speed>0.9</speed>
</trkpt>
<trkpt lat="33.57444823" lon="-107.35783255">
<ele>2046</ele>
<time>2023-11-09T20:12:14Z</time>
<speed>0.9</speed>
</trkpt>
<trkpt lat="33.57448682" lon="-107.35783945">
<ele>2046.3</ele>
<time>2023-11-09T20:12:18Z</time>
<speed>0.9</speed>
</trkpt>
<trkpt lat="33.57452833" lon="-107.35783474">
<ele>2046.4</ele>
<time>2023-11-09T20:12:22Z</time>
<speed>1.2</speed>
</trkpt>
<trkpt lat="33.57457296" lon="-107.35782245">
<ele>2045.7</ele>
<time>2023-11-09T20:12:26Z</time>
<speed>1.2</speed>
</trkpt>
<trkpt lat="33.57461025" lon="-107.35780769">
<ele>2045.5</ele>
<time>2023-11-09T20:12:30Z</time>
<speed>1.1</speed>
</trkpt>
<trkpt lat="33.57464772" lon="-107.35781344">
<ele>2045</ele>
<time>2023-11-09T20:12:34Z</time>
<speed>1.1</speed>
</trkpt>
<trkpt lat="33.57468333" lon="-107.35780608">
<ele>2044.8</ele>
<time>2023-11-09T20:12:38Z</time>
<speed>1.1</speed>
</trkpt>
<trkpt lat="33.57472281" lon="-107.35781282">
<ele>2044.7</ele>
<time>2023-11-09T20:12:42Z</time>
<speed>1.2</speed>
</trkpt>
<trkpt lat="33.57475802" lon="-107.3578262">
<ele>2044.7</ele>
<time>2023-11-09T20:12:46Z</time>
<speed>1</speed>
</trkpt>
<trkpt lat="33.57479072" lon="-107.35784565">
<ele>2045.4</ele>
<time>2023-11-09T20:12:50Z</time>
<speed>1</speed>
</trkpt>
<trkpt lat="33.57483439" lon="-107.35784653">
<ele>2046.5</ele>
<time>2023-11-09T20:12:56Z</time>
<speed>1.1</speed>
</trkpt>
<trkpt lat="33.57486702" lon="-107.35781265">
<ele>2046.7</ele>
<time>2023-11-09T20:13:02Z</time>
<speed>0.8</speed>
</trkpt>
<trkpt lat="33.57490587" lon="-107.35780595">
<ele>2048.1</ele>
<time>2023-11-09T20:13:07Z</time>
<speed>0.9</speed>
</trkpt>
<trkpt lat="33.57494445" lon="-107.35782824">
<ele>2048.7</ele>
<time>2023-11-09T20:13:11Z</time>
<speed>1.1</speed>
</trkpt>
<trkpt lat="33.5749858" lon="-107.357845">
<ele>2049.5</ele>
<time>2023-11-09T20:13:16Z</time>
<speed>0.9</speed>
</trkpt>
<trkpt lat="33.57502574" lon="-107.35785375">
<ele>2049.8</ele>
<time>2023-11-09T20:14:20Z</time>
<speed>0.9</speed>
</trkpt>
<trkpt lat="33.57504898" lon="-107.35789404">
<ele>2049.3</ele>
<time>2023-11-09T20:14:25Z</time>
<speed>0.9</speed>
</trkpt>
<trkpt lat="33.57506943" lon="-107.35793059">
<ele>2048.5</ele>
<time>2023-11-09T20:14:30Z</time>
<speed>0.9</speed>
</trkpt>
<trkpt lat="33.5750986" lon="-107.35796402">
<ele>2048.8</ele>
<time>2023-11-09T20:14:35Z</time>
<speed>0.9</speed>
</trkpt>
<trkpt lat="33.57512784" lon="-107.35799413">
<ele>2048.2</ele>
<time>2023-11-09T20:14:41Z</time>
<speed>0.9</speed>
</trkpt>
<trkpt lat="33.57514438" lon="-107.3580395">
<ele>2049.4</ele>
<time>2023-11-09T20:14:47Z</time>
<speed>0.9</speed>
</trkpt>
<trkpt lat="33.57516989" lon="-107.35808172">
<ele>2049.9</ele>
<time>2023-11-09T20:14:52Z</time>
<speed>1</speed>
</trkpt>
<trkpt lat="33.57520301" lon="-107.35811868">
<ele>2050.7</ele>
<time>2023-11-09T20:14:56Z</time>
<speed>1.1</speed>
</trkpt>
<trkpt lat="33.57523283" lon="-107.35815332">
<ele>2051.7</ele>
<time>2023-11-09T20:15:00Z</time>
<speed>1</speed>
</trkpt>
<trkpt lat="33.57525654" lon="-107.35819369">
<ele>2051.9</ele>
<time>2023-11-09T20:15:05Z</time>
<speed>1</speed>
</trkpt>
<trkpt lat="33.57527071" lon="-107.35824456">
<ele>2053.3</ele>
<time>2023-11-09T20:15:11Z</time>
<speed>1</speed>
</trkpt>
<trkpt lat="33.57529523" lon="-107.35827822">
<ele>2052.6</ele>
<time>2023-11-09T20:15:27Z</time>
<speed>0.7</speed>
</trkpt>
<trkpt lat="33.57532821" lon="-107.35829754">
<ele>2055.5</ele>
<time>2023-11-09T20:15:51Z</time>
<speed>0</speed>
</trkpt>
<trkpt lat="33.57536853" lon="-107.35831725">
<ele>2054.7</ele>
<time>2023-11-09T20:16:17Z</time>
<speed>0.9</speed>
</trkpt>
<trkpt lat="33.5754011" lon="-107.35834618">
<ele>2054.3</ele>
<time>2023-11-09T20:16:20Z</time>
<speed>1.1</speed>
</trkpt>
<trkpt lat="33.57542941" lon="-107.35837302">
<ele>2056.1</ele>
<time>2023-11-09T20:16:24Z</time>
<speed>0.7</speed>
</trkpt>
<trkpt lat="33.57545659" lon="-107.35840379">
<ele>2057.5</ele>
<time>2023-11-09T20:16:28Z</time>
<speed>1</speed>
</trkpt>
<trkpt lat="33.5754996" lon="-107.35840928">
<ele>2057.5</ele>
<time>2023-11-09T20:16:33Z</time>
<speed>1</speed>
</trkpt>
<trkpt lat="33.57554037" lon="-107.35841257">
<ele>2057.2</ele>
<time>2023-11-09T20:16:37Z</time>
<speed>1</speed>
</trkpt>
<trkpt lat="33.57558232" lon="-107.35841826">
<ele>2058.6</ele>
<time>2023-11-09T20:16:41Z</time>
<speed>1.1</speed>
</trkpt>
<trkpt lat="33.57562176" lon="-107.35841184">
<ele>2058.7</ele>
<time>2023-11-09T20:16:45Z</time>
<speed>1.2</speed>
</trkpt>
<trkpt lat="33.57566059" lon="-107.35841009">
<ele>2059.8</ele>
<time>2023-11-09T20:16:49Z</time>
<speed>1.1</speed>
</trkpt>
<trkpt lat="33.57570306" lon="-107.3584063">
<ele>2060.5</ele>
<time>2023-11-09T20:16:53Z</time>
<speed>1.1</speed>
</trkpt>
<trkpt lat="33.57574511" lon="-107.35841503">
<ele>2060.8</ele>
<time>2023-11-09T20:16:57Z</time>
<speed>1.3</speed>
</trkpt>
<trkpt lat="33.57578726" lon="-107.35841956">
<ele>2060.9</ele>
<time>2023-11-09T20:17:01Z</time>
<speed>1.2</speed>
</trkpt>
<trkpt lat="33.57576558" lon="-107.35837906">
<ele>2062.6</ele>
<time>2023-11-09T20:17:13Z</time>
<speed>0</speed>
</trkpt>
<trkpt lat="33.57580299" lon="-107.35838084">
<ele>2062.2</ele>
<time>2023-11-09T20:17:37Z</time>
<speed>1.1</speed>
</trkpt>
<trkpt lat="33.57584252" lon="-107.3584021">
<ele>2062</ele>
<time>2023-11-09T20:17:42Z</time>
<speed>0.9</speed>
</trkpt>
<trkpt lat="33.57588329" lon="-107.35841249">
<ele>2061.1</ele>
<time>2023-11-09T20:17:47Z</time>
<speed>0.8</speed>
</trkpt>
<trkpt lat="33.57591741" lon="-107.3584325">
<ele>2061.5</ele>
<time>2023-11-09T20:17:52Z</time>
<speed>0.9</speed>
</trkpt>
<trkpt lat="33.57595595" lon="-107.35844343">
<ele>2061.4</ele>
<time>2023-11-09T20:17:56Z</time>
<speed>0.9</speed>
</trkpt>
<trkpt lat="33.57599653" lon="-107.35842293">
<ele>2062.4</ele>
<time>2023-11-09T20:18:01Z</time>
<speed>0.8</speed>
</trkpt>
<trkpt lat="33.57603509" lon="-107.35840712">
<ele>2063.7</ele>
<time>2023-11-09T20:18:07Z</time>
<speed>0.9</speed>
</trkpt>
<trkpt lat="33.57607159" lon="-107.35839269">
<ele>2063.1</ele>
<time>2023-11-09T20:18:12Z</time>
<speed>0.9</speed>
</trkpt>
<trkpt lat="33.57610784" lon="-107.35840407">
<ele>2063.4</ele>
<time>2023-11-09T20:18:17Z</time>
<speed>0.9</speed>
</trkpt>
<trkpt lat="33.57614761" lon="-107.35841082">
<ele>2063.4</ele>
<time>2023-11-09T20:18:22Z</time>
<speed>0.9</speed>
</trkpt>
<trkpt lat="33.57619062" lon="-107.35841283">
<ele>2064.4</ele>
<time>2023-11-09T20:18:27Z</time>
<speed>1.1</speed>
</trkpt>
<trkpt lat="33.57623088" lon="-107.35840202">
<ele>2063.5</ele>
<time>2023-11-09T20:18:31Z</time>
<speed>1</speed>
</trkpt>
<trkpt lat="33.57627329" lon="-107.3583956">
<ele>2063.2</ele>
<time>2023-11-09T20:18:35Z</time>
<speed>1</speed>
</trkpt>
<trkpt lat="33.57631362" lon="-107.35841318">
<ele>2064.4</ele>
<time>2023-11-09T20:18:40Z</time>
<speed>1</speed>
</trkpt>
<trkpt lat="33.57635099" lon="-107.35840233">
<ele>2065.4</ele>
<time>2023-11-09T20:18:44Z</time>
<speed>0.9</speed>
</trkpt>
<trkpt lat="33.57639389" lon="-107.35841096">
<ele>2065.2</ele>
<time>2023-11-09T20:18:50Z</time>
<speed>0.9</speed>
</trkpt>
<trkpt lat="33.57642728" lon="-107.35843387">
<ele>2067</ele>
<time>2023-11-09T20:18:56Z</time>
<speed>0.6</speed>
</trkpt>
<trkpt lat="33.57646505" lon="-107.35845519">
<ele>2067.9</ele>
<time>2023-11-09T20:19:01Z</time>
<speed>0.8</speed>
</trkpt>
<trkpt lat="33.57649707" lon="-107.35847864">
<ele>2068.3</ele>
<time>2023-11-09T20:19:06Z</time>
<speed>0.9</speed>
</trkpt>
<trkpt lat="33.57653935" lon="-107.35848452">
<ele>2067.6</ele>
<time>2023-11-09T20:19:11Z</time>
<speed>1</speed>
</trkpt>
<trkpt lat="33.57658058" lon="-107.35848632">
<ele>2069.8</ele>
<time>2023-11-09T20:19:17Z</time>
<speed>0.8</speed>
</trkpt>
<trkpt lat="33.57661899" lon="-107.35848491">
<ele>2070.7</ele>
<time>2023-11-09T20:19:22Z</time>
<speed>0.8</speed>
</trkpt>
<trkpt lat="33.57666287" lon="-107.35848702">
<ele>2070.9</ele>
<time>2023-11-09T20:19:28Z</time>
<speed>0.9</speed>
</trkpt>
<trkpt lat="33.57670388" lon="-107.35849084">
<ele>2071.9</ele>
<time>2023-11-09T20:19:33Z</time>
<speed>0.9</speed>
</trkpt>
<trkpt lat="33.57674077" lon="-107.3584991">
<ele>2072.8</ele>
<time>2023-11-09T20:19:37Z</time>
<speed>1</speed>
</trkpt>
<trkpt lat="33.57677971" lon="-107.35849793">
<ele>2073.8</ele>
<time>2023-11-09T20:19:41Z</time>
<speed>0.9</speed>
</trkpt>
<trkpt lat="33.57681697" lon="-107.35850512">
<ele>2074.3</ele>
<time>2023-11-09T20:19:45Z</time>
<speed>0.9</speed>
</trkpt>
<trkpt lat="33.57684944" lon="-107.35847882">
<ele>2073.6</ele>
<time>2023-11-09T20:20:05Z</time>
<speed>1</speed>
</trkpt>
<trkpt lat="33.57689359" lon="-107.35847937">
<ele>2075.5</ele>
<time>2023-11-09T20:20:10Z</time>
<speed>1.1</speed>
</trkpt>
<trkpt lat="33.57692911" lon="-107.35848843">
<ele>2075.4</ele>
<time>2023-11-09T20:20:14Z</time>
<speed>1</speed>
</trkpt>
<trkpt lat="33.57696134" lon="-107.35850939">
<ele>2076.1</ele>
<time>2023-11-09T20:20:19Z</time>
<speed>1</speed>
</trkpt>
<trkpt lat="33.5769905" lon="-107.35853973">
<ele>2076.5</ele>
<time>2023-11-09T20:20:23Z</time>
<speed>1</speed>
</trkpt>
<trkpt lat="33.57702755" lon="-107.35854956">
<ele>2076.1</ele>
<time>2023-11-09T20:20:28Z</time>
<speed>0.9</speed>
</trkpt>
<trkpt lat="33.57706523" lon="-107.35855083">
<ele>2077.2</ele>
<time>2023-11-09T20:21:17Z</time>
<speed>0.6</speed>
</trkpt>
<trkpt lat="33.5771025" lon="-107.35855971">
<ele>2078.4</ele>
<time>2023-11-09T20:21:32Z</time>
<speed>0.7</speed>
</trkpt>
<trkpt lat="33.57713617" lon="-107.35853969">
<ele>2078.9</ele>
<time>2023-11-09T20:21:40Z</time>
<speed>0.6</speed>
</trkpt>
<trkpt lat="33.57716582" lon="-107.35856973">
<ele>2080.2</ele>
<time>2023-11-09T20:21:45Z</time>
<speed>1</speed>
</trkpt>
<trkpt lat="33.57720049" lon="-107.35855337">
<ele>2080.5</ele>
<time>2023-11-09T20:21:50Z</time>
<speed>0</speed>
</trkpt>
<trkpt lat="33.5772334" lon="-107.3585315">
<ele>2080.3</ele>
<time>2023-11-09T20:22:34Z</time>
<speed>0.6</speed>
</trkpt>
<trkpt lat="33.57726621" lon="-107.358506">
<ele>2079.4</ele>
<time>2023-11-09T20:22:39Z</time>
<speed>0.9</speed>
</trkpt>
<trkpt lat="33.57730827" lon="-107.35850846">
<ele>2080.3</ele>
<time>2023-11-09T20:22:45Z</time>
<speed>0.8</speed>
</trkpt>
<trkpt lat="33.57733771" lon="-107.35853927">
<ele>2081.8</ele>
<time>2023-11-09T20:22:50Z</time>
<speed>0.9</speed>
</trkpt>
<trkpt lat="33.57738046" lon="-107.3585488">
<ele>2084.8</ele>
<time>2023-11-09T20:23:01Z</time>
<speed>0.9</speed>
</trkpt>
<trkpt lat="33.57741989" lon="-107.35853294">
<ele>2086.8</ele>
<time>2023-11-09T20:23:08Z</time>
<speed>0.9</speed>
</trkpt>
<trkpt lat="33.57744759" lon="-107.35850286">
<ele>2088.1</ele>
<time>2023-11-09T20:23:14Z</time>
<speed>0.8</speed>
</trkpt>
<trkpt lat="33.57747645" lon="-107.35846572">
<ele>2087.1</ele>
<time>2023-11-09T20:23:20Z</time>
<speed>0.8</speed>
</trkpt>
<trkpt lat="33.57750956" lon="-107.3584393">
<ele>2087.5</ele>
<time>2023-11-09T20:23:25Z</time>
<speed>0.8</speed>
</trkpt>
<trkpt lat="33.577548" lon="-107.35843207">
<ele>2087.9</ele>
<time>2023-11-09T20:23:35Z</time>
<speed>0.9</speed>
</trkpt>
<trkpt lat="33.57758512" lon="-107.35842411">
<ele>2088.4</ele>
<time>2023-11-09T20:23:40Z</time>
<speed>0.6</speed>
</trkpt>
<trkpt lat="33.57762235" lon="-107.35841659">
<ele>2089</ele>
<time>2023-11-09T20:23:46Z</time>
<speed>0.8</speed>
</trkpt>
<trkpt lat="33.57766326" lon="-107.35842707">
<ele>2089.9</ele>
<time>2023-11-09T20:23:54Z</time>
<speed>0.7</speed>
</trkpt>
<trkpt lat="33.57769981" lon="-107.3584364">
<ele>2090.4</ele>
<time>2023-11-09T20:24:00Z</time>
<speed>0.7</speed>
</trkpt>
<trkpt lat="33.57773775" lon="-107.35845451">
<ele>2092.1</ele>
<time>2023-11-09T20:24:07Z</time>
<speed>0.8</speed>
</trkpt>
<trkpt lat="33.57777733" lon="-107.35844464">
<ele>2093.2</ele>
<time>2023-11-09T20:24:12Z</time>
<speed>0.7</speed>
</trkpt>
<trkpt lat="33.57781715" lon="-107.35843112">
<ele>2092.7</ele>
<time>2023-11-09T20:24:17Z</time>
<speed>0.9</speed>
</trkpt>
<trkpt lat="33.57785755" lon="-107.35843842">
<ele>2094.2</ele>
<time>2023-11-09T20:24:23Z</time>
<speed>0.8</speed>
</trkpt>
<trkpt lat="33.57789796" lon="-107.35844436">
<ele>2097.8</ele>
<time>2023-11-09T20:24:30Z</time>
<speed>0.9</speed>
</trkpt>
<trkpt lat="33.57793643" lon="-107.35844242">
<ele>2098.2</ele>
<time>2023-11-09T20:24:36Z</time>
<speed>0.8</speed>
</trkpt>
<trkpt lat="33.57796234" lon="-107.35841159">
<ele>2098.6</ele>
<time>2023-11-09T20:24:42Z</time>
<speed>0.6</speed>
</trkpt>
<trkpt lat="33.57799349" lon="-107.35843835">
<ele>2097.6</ele>
<time>2023-11-09T20:24:52Z</time>
<speed>0.8</speed>
</trkpt>
<trkpt lat="33.57800234" lon="-107.35848372">
<ele>2099.5</ele>
<time>2023-11-09T20:24:59Z</time>
<speed>0.7</speed>
</trkpt>
<trkpt lat="33.57801911" lon="-107.3585311">
<ele>2100.7</ele>
<time>2023-11-09T20:25:05Z</time>
<speed>1</speed>
</trkpt>
<trkpt lat="33.57804978" lon="-107.35855698">
<ele>2100.9</ele>
<time>2023-11-09T20:25:14Z</time>
<speed>0.7</speed>
</trkpt>
<trkpt lat="33.57805848" lon="-107.3586022">
<ele>2102</ele>
<time>2023-11-09T20:25:49Z</time>
<speed>0.9</speed>
</trkpt>
<trkpt lat="33.57806058" lon="-107.35864999">
<ele>2102.3</ele>
<time>2023-11-09T20:25:54Z</time>
<speed>0.9</speed>
</trkpt>
<trkpt lat="33.57805387" lon="-107.3587022">
<ele>2102.6</ele>
<time>2023-11-09T20:25:59Z</time>
<speed>1</speed>
</trkpt>
<trkpt lat="33.57807882" lon="-107.35873354">
<ele>2103.2</ele>
<time>2023-11-09T20:26:04Z</time>
<speed>0.6</speed>
</trkpt>
<trkpt lat="33.57810677" lon="-107.3587695">
<ele>2103.3</ele>
<time>2023-11-09T20:26:09Z</time>
<speed>0.9</speed>
</trkpt>
<trkpt lat="33.57813344" lon="-107.35880614">
<ele>2104.5</ele>
<time>2023-11-09T20:26:15Z</time>
<speed>0.6</speed>
</trkpt>
<trkpt lat="33.57816756" lon="-107.35883335">
<ele>2106</ele>
<time>2023-11-09T20:26:22Z</time>
<speed>0.6</speed>
</trkpt>
<trkpt lat="33.57820267" lon="-107.35886321">
<ele>2107.6</ele>
<time>2023-11-09T20:26:33Z</time>
<speed>1.2</speed>
</trkpt>
<trkpt lat="33.5782254" lon="-107.35889681">
<ele>2108.3</ele>
<time>2023-11-09T20:26:38Z</time>
<speed>1</speed>
</trkpt>
<trkpt lat="33.57823269" lon="-107.35894044">
<ele>2109.6</ele>
<time>2023-11-09T20:27:53Z</time>
<speed>0.9</speed>
</trkpt>
<trkpt lat="33.57825075" lon="-107.35898424">
<ele>2110.8</ele>
<time>2023-11-09T20:27:59Z</time>
<speed>0.7</speed>
</trkpt>
<trkpt lat="33.57825696" lon="-107.35902899">
<ele>2111</ele>
<time>2023-11-09T20:28:11Z</time>
<speed>0.7</speed>
</trkpt>
<trkpt lat="33.57823721" lon="-107.35906884">
<ele>2113.8</ele>
<time>2023-11-09T20:28:20Z</time>
<speed>0.5</speed>
</trkpt>
<trkpt lat="33.5782476" lon="-107.35911956">
<ele>2113.5</ele>
<time>2023-11-09T20:28:26Z</time>
<speed>1</speed>
</trkpt>
<trkpt lat="33.57826643" lon="-107.35915704">
<ele>2113.1</ele>
<time>2023-11-09T20:28:30Z</time>
<speed>0.6</speed>
</trkpt>
<trkpt lat="33.57826493" lon="-107.35920316">
<ele>2114.8</ele>
<time>2023-11-09T20:28:38Z</time>
<speed>0.8</speed>
</trkpt>
<trkpt lat="33.57825128" lon="-107.35924657">
<ele>2116.4</ele>
<time>2023-11-09T20:28:44Z</time>
<speed>0.7</speed>
</trkpt>
<trkpt lat="33.57826019" lon="-107.35929242">
<ele>2118.8</ele>
<time>2023-11-09T20:28:54Z</time>
<speed>0.6</speed>
</trkpt>
<trkpt lat="33.57822311" lon="-107.35929059">
<ele>2119.5</ele>
<time>2023-11-09T20:31:44Z</time>
<speed>0.7</speed>
</trkpt>
<trkpt lat="33.57826192" lon="-107.35928963">
<ele>2119.8</ele>
<time>2023-11-09T20:32:04Z</time>
<speed>0.9</speed>
</trkpt>
<trkpt lat="33.57829518" lon="-107.35926601">
<ele>2121.3</ele>
<time>2023-11-09T20:32:09Z</time>
<speed>0.7</speed>
</trkpt>
<trkpt lat="33.57833146" lon="-107.35924983">
<ele>2120.6</ele>
<time>2023-11-09T20:32:16Z</time>
<speed>0.6</speed>
</trkpt>
<trkpt lat="33.57837055" lon="-107.35925917">
<ele>2119.6</ele>
<time>2023-11-09T20:32:25Z</time>
<speed>0.5</speed>
</trkpt>
<trkpt lat="33.57839287" lon="-107.35930199">
<ele>2118.3</ele>
<time>2023-11-09T20:32:32Z</time>
<speed>0.8</speed>
</trkpt>
<trkpt lat="33.57841465" lon="-107.3593394">
<ele>2118.5</ele>
<time>2023-11-09T20:32:47Z</time>
<speed>0.6</speed>
</trkpt>
<trkpt lat="33.57845433" lon="-107.35936334">
<ele>2118.7</ele>
<time>2023-11-09T20:32:53Z</time>
<speed>0.9</speed>
</trkpt>
<trkpt lat="33.57849024" lon="-107.35937215">
<ele>2119.3</ele>
<time>2023-11-09T20:32:58Z</time>
<speed>0.4</speed>
</trkpt>
<trkpt lat="33.57850747" lon="-107.35941117">
<ele>2120.7</ele>
<time>2023-11-09T20:33:06Z</time>
<speed>0</speed>
</trkpt>
<trkpt lat="33.57854487" lon="-107.35941637">
<ele>2120.4</ele>
<time>2023-11-09T20:33:19Z</time>
<speed>0.4</speed>
</trkpt>
<trkpt lat="33.57856139" lon="-107.35945677">
<ele>2119.8</ele>
<time>2023-11-09T20:34:00Z</time>
<speed>0.5</speed>
</trkpt>
<trkpt lat="33.5785917" lon="-107.35948045">
<ele>2121.1</ele>
<time>2023-11-09T20:34:38Z</time>
<speed>0</speed>
</trkpt>
<trkpt lat="33.57859183" lon="-107.35943699">
<ele>2120.2</ele>
<time>2023-11-09T20:35:58Z</time>
<speed>0</speed>
</trkpt>
<trkpt lat="33.5785886" lon="-107.35939384">
<ele>2119.8</ele>
<time>2023-11-09T20:41:59Z</time>
<speed>0.6</speed>
</trkpt>
<trkpt lat="33.57855175" lon="-107.35938465">
<ele>2118.9</ele>
<time>2023-11-09T20:42:45Z</time>
<speed>0.7</speed>
</trkpt>
<trkpt lat="33.57852162" lon="-107.3593583">
<ele>2119.6</ele>
<time>2023-11-09T20:42:55Z</time>
<speed>0.6</speed>
</trkpt>
<trkpt lat="33.57849859" lon="-107.35932416">
<ele>2118.1</ele>
<time>2023-11-09T20:43:01Z</time>
<speed>0.6</speed>
</trkpt>
<trkpt lat="33.57846357" lon="-107.35931177">
<ele>2118.9</ele>
<time>2023-11-09T20:43:20Z</time>
<speed>0.7</speed>
</trkpt>
<trkpt lat="33.57842511" lon="-107.35928991">
<ele>2117.8</ele>
<time>2023-11-09T20:43:34Z</time>
<speed>0.6</speed>
</trkpt>
<trkpt lat="33.57840174" lon="-107.35925342">
<ele>2118.7</ele>
<time>2023-11-09T20:43:39Z</time>
<speed>0.7</speed>
</trkpt>
<trkpt lat="33.57837352" lon="-107.35922039">
<ele>2119.1</ele>
<time>2023-11-09T20:43:45Z</time>
<speed>0.8</speed>
</trkpt>
<trkpt lat="33.57833774" lon="-107.35922682">
<ele>2119.3</ele>
<time>2023-11-09T20:43:52Z</time>
<speed>0.4</speed>
</trkpt>
<trkpt lat="33.57830293" lon="-107.359258">
<ele>2118.9</ele>
<time>2023-11-09T20:43:58Z</time>
<speed>0.7</speed>
</trkpt>
<trkpt lat="33.57828155" lon="-107.35921942">
<ele>2120</ele>
<time>2023-11-09T20:44:33Z</time>
<speed>0.6</speed>
</trkpt>
<trkpt lat="33.57830425" lon="-107.35925504">
<ele>2120.9</ele>
<time>2023-11-09T20:45:52Z</time>
<speed>0</speed>
</trkpt>
<trkpt lat="33.57827374" lon="-107.35933063">
<ele>2097</ele>
<time>2023-11-09T21:35:39Z</time>
<speed>0.2</speed>
</trkpt>
<trkpt lat="33.57832281" lon="-107.35926223">
<ele>2103.8</ele>
<time>2023-11-09T21:35:41Z</time>
<speed>1.1</speed>
</trkpt>
<trkpt lat="33.57830732" lon="-107.35922149">
<ele>2118</ele>
<time>2023-11-09T21:37:18Z</time>
<speed>0.4</speed>
</trkpt>
<trkpt lat="33.57827937" lon="-107.35918842">
<ele>2117.6</ele>
<time>2023-11-09T21:37:24Z</time>
<speed>0.6</speed>
</trkpt>
<trkpt lat="33.57828079" lon="-107.35914243">
<ele>2117</ele>
<time>2023-11-09T21:37:40Z</time>
<speed>0.7</speed>
</trkpt>
<trkpt lat="33.57829798" lon="-107.35910248">
<ele>2116.2</ele>
<time>2023-11-09T21:37:46Z</time>
<speed>0.7</speed>
</trkpt>
<trkpt lat="33.57828277" lon="-107.35906251">
<ele>2115.3</ele>
<time>2023-11-09T21:37:54Z</time>
<speed>0.5</speed>
</trkpt>
<trkpt lat="33.5782754" lon="-107.35902014">
<ele>2113.9</ele>
<time>2023-11-09T21:38:03Z</time>
<speed>0.5</speed>
</trkpt>
<trkpt lat="33.57827338" lon="-107.35897447">
<ele>2112.6</ele>
<time>2023-11-09T21:38:12Z</time>
<speed>0.5</speed>
</trkpt>
<trkpt lat="33.57826702" lon="-107.35892914">
<ele>2112.7</ele>
<time>2023-11-09T21:38:20Z</time>
<speed>0.5</speed>
</trkpt>
<trkpt lat="33.5782489" lon="-107.35888756">
<ele>2111.6</ele>
<time>2023-11-09T21:38:26Z</time>
<speed>0.8</speed>
</trkpt>
<trkpt lat="33.57823704" lon="-107.35884377">
<ele>2110.3</ele>
<time>2023-11-09T21:38:33Z</time>
<speed>0.6</speed>
</trkpt>
<trkpt lat="33.5782133" lon="-107.35880104">
<ele>2109.1</ele>
<time>2023-11-09T21:38:39Z</time>
<speed>0.7</speed>
</trkpt>
<trkpt lat="33.57819655" lon="-107.35875794">
<ele>2107.9</ele>
<time>2023-11-09T21:38:45Z</time>
<speed>0.7</speed>
</trkpt>
<trkpt lat="33.57816476" lon="-107.35873623">
<ele>2106.5</ele>
<time>2023-11-09T21:38:51Z</time>
<speed>0.9</speed>
</trkpt>
<trkpt lat="33.57813117" lon="-107.35870677">
<ele>2105</ele>
<time>2023-11-09T21:38:57Z</time>
<speed>0.9</speed>
</trkpt>
<trkpt lat="33.57810469" lon="-107.35866922">
<ele>2104.4</ele>
<time>2023-11-09T21:39:03Z</time>
<speed>0.8</speed>
</trkpt>
<trkpt lat="33.57807679" lon="-107.35863249">
<ele>2102.9</ele>
<time>2023-11-09T21:39:09Z</time>
<speed>0.9</speed>
</trkpt>
<trkpt lat="33.57805522" lon="-107.35859196">
<ele>2102.7</ele>
<time>2023-11-09T21:39:14Z</time>
<speed>0</speed>
</trkpt>
<trkpt lat="33.57804359" lon="-107.35854663">
<ele>2102.7</ele>
<time>2023-11-09T21:39:30Z</time>
<speed>0.9</speed>
</trkpt>
<trkpt lat="33.57801903" lon="-107.35850495">
<ele>2101.5</ele>
<time>2023-11-09T21:39:36Z</time>
<speed>0.9</speed>
</trkpt>
<trkpt lat="33.57799137" lon="-107.35847445">
<ele>2100.7</ele>
<time>2023-11-09T21:39:42Z</time>
<speed>0.8</speed>
</trkpt>
<trkpt lat="33.57801738" lon="-107.35841779">
<ele>2101.1</ele>
<time>2023-11-09T21:40:06Z</time>
<speed>2.9</speed>
</trkpt>
<trkpt lat="33.57804333" lon="-107.35845303">
<ele>2090.7</ele>
<time>2023-11-09T21:40:15Z</time>
<speed>1.8</speed>
</trkpt>
<trkpt lat="33.57800595" lon="-107.35846926">
<ele>2084.7</ele>
<time>2023-11-09T21:40:38Z</time>
<speed>0.5</speed>
</trkpt>
<trkpt lat="33.57796707" lon="-107.3584845">
<ele>2085.1</ele>
<time>2023-11-09T21:40:43Z</time>
<speed>0</speed>
</trkpt>
<trkpt lat="33.57793666" lon="-107.35852317">
<ele>2084.9</ele>
<time>2023-11-09T21:40:52Z</time>
<speed>3.3</speed>
</trkpt>
<trkpt lat="33.5779425" lon="-107.3585688">
<ele>2083.3</ele>
<time>2023-11-09T21:41:07Z</time>
<speed>2.1</speed>
</trkpt>
<trkpt lat="33.57793609" lon="-107.35861624">
<ele>2079.2</ele>
<time>2023-11-09T21:41:13Z</time>
<speed>2.5</speed>
</trkpt>
<trkpt lat="33.57795092" lon="-107.35865886">
<ele>2069.7</ele>
<time>2023-11-09T21:41:25Z</time>
<speed>1.5</speed>
</trkpt>
<trkpt lat="33.57792412" lon="-107.35869249">
<ele>2048.5</ele>
<time>2023-11-09T21:41:43Z</time>
<speed>1.6</speed>
</trkpt>
<trkpt lat="33.57792721" lon="-107.35863262">
<ele>2046.5</ele>
<time>2023-11-09T21:41:46Z</time>
<speed>4.5</speed>
</trkpt>
<trkpt lat="33.57791897" lon="-107.35867715">
<ele>2045.1</ele>
<time>2023-11-09T21:41:49Z</time>
<speed>2.5</speed>
</trkpt>
<trkpt lat="33.57793361" lon="-107.35872035">
<ele>2033</ele>
<time>2023-11-09T21:41:55Z</time>
<speed>1</speed>
</trkpt>
<trkpt lat="33.57794399" lon="-107.35876296">
<ele>2020</ele>
<time>2023-11-09T21:42:03Z</time>
<speed>1.2</speed>
</trkpt>
<trkpt lat="33.57790548" lon="-107.35874079">
<ele>2007</ele>
<time>2023-11-09T21:42:21Z</time>
<speed>3.1</speed>
</trkpt>
<trkpt lat="33.57788032" lon="-107.35870751">
<ele>2010.5</ele>
<time>2023-11-09T21:42:26Z</time>
<speed>0.4</speed>
</trkpt>
<trkpt lat="33.57784671" lon="-107.35867619">
<ele>2015.6</ele>
<time>2023-11-09T21:42:33Z</time>
<speed>0.5</speed>
</trkpt>
<trkpt lat="33.57781009" lon="-107.35866917">
<ele>2018.4</ele>
<time>2023-11-09T21:42:36Z</time>
<speed>0.5</speed>
</trkpt>
<trkpt lat="33.57777298" lon="-107.35865827">
<ele>2021.6</ele>
<time>2023-11-09T21:42:39Z</time>
<speed>0.6</speed>
</trkpt>
<trkpt lat="33.57773324" lon="-107.35867015">
<ele>2023.9</ele>
<time>2023-11-09T21:42:44Z</time>
<speed>0.2</speed>
</trkpt>
<trkpt lat="33.57770286" lon="-107.35869523">
<ele>2030</ele>
<time>2023-11-09T21:42:55Z</time>
<speed>0.5</speed>
</trkpt>
<trkpt lat="33.57767105" lon="-107.35872014">
<ele>2031.6</ele>
<time>2023-11-09T21:43:00Z</time>
<speed>1.2</speed>
</trkpt>
<trkpt lat="33.57763337" lon="-107.3587459">
<ele>2020.9</ele>
<time>2023-11-09T21:43:28Z</time>
<speed>2.5</speed>
</trkpt>
<trkpt lat="33.57759609" lon="-107.3587406">
<ele>2018.5</ele>
<time>2023-11-09T21:43:50Z</time>
<speed>0</speed>
</trkpt>
<trkpt lat="33.57756114" lon="-107.35872739">
<ele>2021.4</ele>
<time>2023-11-09T21:43:58Z</time>
<speed>0.7</speed>
</trkpt>
<trkpt lat="33.57752406" lon="-107.35873895">
<ele>2021.8</ele>
<time>2023-11-09T21:44:08Z</time>
<speed>0.6</speed>
</trkpt>
<trkpt lat="33.57749388" lon="-107.35876422">
<ele>2017.9</ele>
<time>2023-11-09T21:44:17Z</time>
<speed>2</speed>
</trkpt>
<trkpt lat="33.57745482" lon="-107.35874518">
<ele>2018.2</ele>
<time>2023-11-09T21:44:25Z</time>
<speed>0</speed>
</trkpt>
<trkpt lat="33.57741834" lon="-107.35875359">
<ele>2020.7</ele>
<time>2023-11-09T21:44:29Z</time>
<speed>0.6</speed>
</trkpt>
<trkpt lat="33.57737294" lon="-107.35875971">
<ele>2024.3</ele>
<time>2023-11-09T21:44:33Z</time>
<speed>0.4</speed>
</trkpt>
<trkpt lat="33.57733626" lon="-107.35875644">
<ele>2027.9</ele>
<time>2023-11-09T21:44:41Z</time>
<speed>4.5</speed>
</trkpt>
<trkpt lat="33.57732422" lon="-107.35870583">
<ele>2029.1</ele>
<time>2023-11-09T21:44:43Z</time>
<speed>3.8</speed>
</trkpt>
<trkpt lat="33.57733566" lon="-107.35865674">
<ele>2031.1</ele>
<time>2023-11-09T21:44:46Z</time>
<speed>2.9</speed>
</trkpt>
<trkpt lat="33.57736322" lon="-107.35868544">
<ele>1999.2</ele>
<time>2023-11-09T21:45:07Z</time>
<speed>1</speed>
</trkpt>
<trkpt lat="33.57676828" lon="-107.35840349">
<ele>2074.9</ele>
<time>2023-11-09T21:45:27Z</time>
<speed>0.8</speed>
</trkpt>
<trkpt lat="33.57673216" lon="-107.35840455">
<ele>2074.6</ele>
<time>2023-11-09T21:45:35Z</time>
<speed>0</speed>
</trkpt>
<trkpt lat="33.57669263" lon="-107.3583961">
<ele>2073.6</ele>
<time>2023-11-09T21:45:57Z</time>
<speed>0.6</speed>
</trkpt>
<trkpt lat="33.57665478" lon="-107.35839411">
<ele>2072.4</ele>
<time>2023-11-09T21:46:07Z</time>
<speed>0.7</speed>
</trkpt>
<trkpt lat="33.57661758" lon="-107.35837847">
<ele>2072.1</ele>
<time>2023-11-09T21:46:13Z</time>
<speed>0.8</speed>
</trkpt>
<trkpt lat="33.57658049" lon="-107.35837887">
<ele>2070.5</ele>
<time>2023-11-09T21:46:21Z</time>
<speed>0.7</speed>
</trkpt>
<trkpt lat="33.57654074" lon="-107.35838251">
<ele>2070.3</ele>
<time>2023-11-09T21:46:29Z</time>
<speed>0.7</speed>
</trkpt>
<trkpt lat="33.57650521" lon="-107.35837293">
<ele>2069.7</ele>
<time>2023-11-09T21:46:34Z</time>
<speed>0.9</speed>
</trkpt>
<trkpt lat="33.57646721" lon="-107.35835841">
<ele>2069.9</ele>
<time>2023-11-09T21:46:45Z</time>
<speed>0.7</speed>
</trkpt>
<trkpt lat="33.576429" lon="-107.35834283">
<ele>2069.1</ele>
<time>2023-11-09T21:46:51Z</time>
<speed>0.7</speed>
</trkpt>
<trkpt lat="33.57638843" lon="-107.35833644">
<ele>2068.6</ele>
<time>2023-11-09T21:46:59Z</time>
<speed>0.6</speed>
</trkpt>
<trkpt lat="33.57634592" lon="-107.35832301">
<ele>2067.9</ele>
<time>2023-11-09T21:47:05Z</time>
<speed>0.9</speed>
</trkpt>
<trkpt lat="33.57630782" lon="-107.35833304">
<ele>2066.4</ele>
<time>2023-11-09T21:47:12Z</time>
<speed>0.7</speed>
</trkpt>
<trkpt lat="33.57626802" lon="-107.35833175">
<ele>2065.9</ele>
<time>2023-11-09T21:47:18Z</time>
<speed>0.9</speed>
</trkpt>
<trkpt lat="33.57622999" lon="-107.35832441">
<ele>2065.5</ele>
<time>2023-11-09T21:47:23Z</time>
<speed>0.9</speed>
</trkpt>
<trkpt lat="33.57619145" lon="-107.35831718">
<ele>2065.7</ele>
<time>2023-11-09T21:47:28Z</time>
<speed>0.8</speed>
</trkpt>
<trkpt lat="33.57614963" lon="-107.35831594">
<ele>2065</ele>
<time>2023-11-09T21:47:34Z</time>
<speed>0.8</speed>
</trkpt>
<trkpt lat="33.57611048" lon="-107.35833141">
<ele>2064.7</ele>
<time>2023-11-09T21:47:41Z</time>
<speed>0.8</speed>
</trkpt>
<trkpt lat="33.5760739" lon="-107.35833254">
<ele>2063.7</ele>
<time>2023-11-09T21:47:48Z</time>
<speed>0.5</speed>
</trkpt>
<trkpt lat="33.57603636" lon="-107.35832309">
<ele>2063.1</ele>
<time>2023-11-09T21:47:55Z</time>
<speed>0.4</speed>
</trkpt>
<trkpt lat="33.57599906" lon="-107.35834214">
<ele>2062</ele>
<time>2023-11-09T21:48:02Z</time>
<speed>0.7</speed>
</trkpt>
<trkpt lat="33.5759619" lon="-107.35834404">
<ele>2061.1</ele>
<time>2023-11-09T21:48:07Z</time>
<speed>0.7</speed>
</trkpt>
<trkpt lat="33.57591732" lon="-107.35834845">
<ele>2062</ele>
<time>2023-11-09T21:48:12Z</time>
<speed>0.9</speed>
</trkpt>
<trkpt lat="33.57587425" lon="-107.35834359">
<ele>2062.7</ele>
<time>2023-11-09T21:48:17Z</time>
<speed>0.9</speed>
</trkpt>
<trkpt lat="33.5758377" lon="-107.35834521">
<ele>2062</ele>
<time>2023-11-09T21:48:27Z</time>
<speed>0.9</speed>
</trkpt>
<trkpt lat="33.5758005" lon="-107.35833694">
<ele>2062.9</ele>
<time>2023-11-09T21:49:16Z</time>
<speed>0.9</speed>
</trkpt>
<trkpt lat="33.57575983" lon="-107.35832236">
<ele>2061.9</ele>
<time>2023-11-09T21:49:21Z</time>
<speed>0.9</speed>
</trkpt>
<trkpt lat="33.57572133" lon="-107.35833475">
<ele>2062.1</ele>
<time>2023-11-09T21:49:45Z</time>
<speed>0.9</speed>
</trkpt>
<trkpt lat="33.57568239" lon="-107.3583368">
<ele>2062.2</ele>
<time>2023-11-09T21:49:50Z</time>
<speed>0.9</speed>
</trkpt>
<trkpt lat="33.57563828" lon="-107.35832722">
<ele>2061.9</ele>
<time>2023-11-09T21:49:55Z</time>
<speed>1</speed>
</trkpt>
<trkpt lat="33.57559544" lon="-107.35833393">
<ele>2062.2</ele>
<time>2023-11-09T21:50:00Z</time>
<speed>1</speed>
</trkpt>
<trkpt lat="33.57555875" lon="-107.35834601">
<ele>2061.8</ele>
<time>2023-11-09T21:50:05Z</time>
<speed>0.8</speed>
</trkpt>
<trkpt lat="33.57552324" lon="-107.35833554">
<ele>2061.2</ele>
<time>2023-11-09T21:50:10Z</time>
<speed>0.8</speed>
</trkpt>
<trkpt lat="33.57548608" lon="-107.35831805">
<ele>2060.4</ele>
<time>2023-11-09T21:50:15Z</time>
<speed>0.8</speed>
</trkpt>
<trkpt lat="33.57545277" lon="-107.35829481">
<ele>2060.6</ele>
<time>2023-11-09T21:50:20Z</time>
<speed>0.9</speed>
</trkpt>
<trkpt lat="33.57541306" lon="-107.3582839">
<ele>2059.1</ele>
<time>2023-11-09T21:50:27Z</time>
<speed>0.7</speed>
</trkpt>
<trkpt lat="33.57537515" lon="-107.35827042">
<ele>2057.8</ele>
<time>2023-11-09T21:50:35Z</time>
<speed>0.7</speed>
</trkpt>
<trkpt lat="33.57534555" lon="-107.35823841">
<ele>2057.8</ele>
<time>2023-11-09T21:50:42Z</time>
<speed>0.9</speed>
</trkpt>
<trkpt lat="33.57531489" lon="-107.35821355">
<ele>2057.4</ele>
<time>2023-11-09T21:50:47Z</time>
<speed>0.8</speed>
</trkpt>
<trkpt lat="33.57528956" lon="-107.35817624">
<ele>2057</ele>
<time>2023-11-09T21:50:51Z</time>
<speed>1.1</speed>
</trkpt>
<trkpt lat="33.57526583" lon="-107.35813606">
<ele>2057.3</ele>
<time>2023-11-09T21:50:55Z</time>
<speed>1</speed>
</trkpt>
<trkpt lat="33.5752271" lon="-107.35811196">
<ele>2056.8</ele>
<time>2023-11-09T21:51:00Z</time>
<speed>0.9</speed>
</trkpt>
<trkpt lat="33.57519303" lon="-107.35807959">
<ele>2056.9</ele>
<time>2023-11-09T21:51:05Z</time>
<speed>0.9</speed>
</trkpt>
<trkpt lat="33.57515825" lon="-107.35805018">
<ele>2056</ele>
<time>2023-11-09T21:51:10Z</time>
<speed>0.9</speed>
</trkpt>
<trkpt lat="33.57512948" lon="-107.35801922">
<ele>2055.6</ele>
<time>2023-11-09T21:51:14Z</time>
<speed>0.9</speed>
</trkpt>
<trkpt lat="33.57509947" lon="-107.35798493">
<ele>2055.5</ele>
<time>2023-11-09T21:51:20Z</time>
<speed>0.8</speed>
</trkpt>
<trkpt lat="33.57508036" lon="-107.3579453">
<ele>2053.6</ele>
<time>2023-11-09T21:51:29Z</time>
<speed>0.9</speed>
</trkpt>
<trkpt lat="33.57507797" lon="-107.35789847">
<ele>2052.7</ele>
<time>2023-11-09T21:51:38Z</time>
<speed>0.7</speed>
</trkpt>
<trkpt lat="33.57506442" lon="-107.35785587">
<ele>2051.3</ele>
<time>2023-11-09T21:51:43Z</time>
<speed>0.2</speed>
</trkpt>
<trkpt lat="33.5750479" lon="-107.3578164">
<ele>2051</ele>
<time>2023-11-09T21:52:28Z</time>
<speed>0.7</speed>
</trkpt>
<trkpt lat="33.5750204" lon="-107.35778635">
<ele>2050.5</ele>
<time>2023-11-09T21:52:34Z</time>
<speed>1</speed>
</trkpt>
<trkpt lat="33.57498323" lon="-107.35777517">
<ele>2050.1</ele>
<time>2023-11-09T21:52:40Z</time>
<speed>0.9</speed>
</trkpt>
<trkpt lat="33.57494464" lon="-107.35776531">
<ele>2049.8</ele>
<time>2023-11-09T21:52:45Z</time>
<speed>0.9</speed>
</trkpt>
<trkpt lat="33.57490577" lon="-107.35776823">
<ele>2048.8</ele>
<time>2023-11-09T21:52:50Z</time>
<speed>1</speed>
</trkpt>
<trkpt lat="33.57486784" lon="-107.35778543">
<ele>2048.4</ele>
<time>2023-11-09T21:52:56Z</time>
<speed>0.7</speed>
</trkpt>
<trkpt lat="33.57483032" lon="-107.35780396">
<ele>2047.2</ele>
<time>2023-11-09T21:53:02Z</time>
<speed>0.8</speed>
</trkpt>
<trkpt lat="33.57479661" lon="-107.35777591">
<ele>2046.6</ele>
<time>2023-11-09T21:53:07Z</time>
<speed>0.8</speed>
</trkpt>
<trkpt lat="33.57475621" lon="-107.35775417">
<ele>2046.4</ele>
<time>2023-11-09T21:53:11Z</time>
<speed>0.9</speed>
</trkpt>
<trkpt lat="33.57472148" lon="-107.35773918">
<ele>2046.8</ele>
<time>2023-11-09T21:53:15Z</time>
<speed>0.9</speed>
</trkpt>
<trkpt lat="33.57467677" lon="-107.35773763">
<ele>2046.5</ele>
<time>2023-11-09T21:53:20Z</time>
<speed>1.2</speed>
</trkpt>
<trkpt lat="33.57463987" lon="-107.3577516">
<ele>2046.6</ele>
<time>2023-11-09T21:53:24Z</time>
<speed>1</speed>
</trkpt>
<trkpt lat="33.57460345" lon="-107.35775058">
<ele>2048.2</ele>
<time>2023-11-09T21:53:28Z</time>
<speed>1</speed>
</trkpt>
<trkpt lat="33.57456595" lon="-107.35776447">
<ele>2047.9</ele>
<time>2023-11-09T21:53:32Z</time>
<speed>1.2</speed>
</trkpt>
<trkpt lat="33.57453025" lon="-107.3577755">
<ele>2048.5</ele>
<time>2023-11-09T21:53:36Z</time>
<speed>1</speed>
</trkpt>
<trkpt lat="33.57449255" lon="-107.35777626">
<ele>2048</ele>
<time>2023-11-09T21:53:40Z</time>
<speed>0.9</speed>
</trkpt>
<trkpt lat="33.57445394" lon="-107.35776555">
<ele>2047.1</ele>
<time>2023-11-09T21:53:45Z</time>
<speed>0.9</speed>
</trkpt>
<trkpt lat="33.574415" lon="-107.357767">
<ele>2046.7</ele>
<time>2023-11-09T21:53:50Z</time>
<speed>0.7</speed>
</trkpt>
<trkpt lat="33.57437525" lon="-107.35777505">
<ele>2045.1</ele>
<time>2023-11-09T21:53:56Z</time>
<speed>0.9</speed>
</trkpt>
<trkpt lat="33.57435399" lon="-107.35773282">
<ele>2044.6</ele>
<time>2023-11-09T21:54:08Z</time>
<speed>0.7</speed>
</trkpt>
<trkpt lat="33.57431964" lon="-107.35770895">
<ele>2043.6</ele>
<time>2023-11-09T21:54:14Z</time>
<speed>0.7</speed>
</trkpt>
<trkpt lat="33.57428614" lon="-107.35769286">
<ele>2043</ele>
<time>2023-11-09T21:54:54Z</time>
<speed>0.3</speed>
</trkpt>
<trkpt lat="33.57426346" lon="-107.35765655">
<ele>2042.5</ele>
<time>2023-11-09T21:55:29Z</time>
<speed>0.6</speed>
</trkpt>
<trkpt lat="33.57424717" lon="-107.35761561">
<ele>2041.5</ele>
<time>2023-11-09T21:55:35Z</time>
<speed>1</speed>
</trkpt>
<trkpt lat="33.5742187" lon="-107.35758871">
<ele>2040.7</ele>
<time>2023-11-09T21:55:40Z</time>
<speed>0.8</speed>
</trkpt>
<trkpt lat="33.57418405" lon="-107.35756498">
<ele>2040.8</ele>
<time>2023-11-09T21:55:45Z</time>
<speed>0.9</speed>
</trkpt>
<trkpt lat="33.57414813" lon="-107.35756002">
<ele>2040.7</ele>
<time>2023-11-09T21:55:52Z</time>
<speed>0.8</speed>
</trkpt>
<trkpt lat="33.57410994" lon="-107.35757133">
<ele>2040.9</ele>
<time>2023-11-09T21:55:57Z</time>
<speed>1</speed>
</trkpt>
<trkpt lat="33.57406535" lon="-107.35756164">
<ele>2040.3</ele>
<time>2023-11-09T21:56:02Z</time>
<speed>1.1</speed>
</trkpt>
<trkpt lat="33.57403628" lon="-107.3575332">
<ele>2040.2</ele>
<time>2023-11-09T21:56:07Z</time>
<speed>1.2</speed>
</trkpt>
<trkpt lat="33.5740127" lon="-107.35748986">
<ele>2040.4</ele>
<time>2023-11-09T21:56:11Z</time>
<speed>1.1</speed>
</trkpt>
<trkpt lat="33.57398992" lon="-107.35745546">
<ele>2041.4</ele>
<time>2023-11-09T21:56:15Z</time>
<speed>1</speed>
</trkpt>
<trkpt lat="33.57395076" lon="-107.35742971">
<ele>2041.5</ele>
<time>2023-11-09T21:56:20Z</time>
<speed>1</speed>
</trkpt>
<trkpt lat="33.57391837" lon="-107.35739457">
<ele>2041.5</ele>
<time>2023-11-09T21:56:25Z</time>
<speed>1</speed>
</trkpt>
<trkpt lat="33.57388303" lon="-107.35737266">
<ele>2041.5</ele>
<time>2023-11-09T21:56:29Z</time>
<speed>1</speed>
</trkpt>
<trkpt lat="33.5738523" lon="-107.35734852">
<ele>2041.1</ele>
<time>2023-11-09T21:56:33Z</time>
<speed>1</speed>
</trkpt>
<trkpt lat="33.57381811" lon="-107.35732839">
<ele>2040.7</ele>
<time>2023-11-09T21:56:37Z</time>
<speed>1.1</speed>
</trkpt>
<trkpt lat="33.57377784" lon="-107.35731253">
<ele>2040.4</ele>
<time>2023-11-09T21:56:42Z</time>
<speed>1</speed>
</trkpt>
<trkpt lat="33.57374209" lon="-107.35730581">
<ele>2039.2</ele>
<time>2023-11-09T21:56:52Z</time>
<speed>0.8</speed>
</trkpt>
<trkpt lat="33.57370278" lon="-107.3572925">
<ele>2038.9</ele>
<time>2023-11-09T21:56:56Z</time>
<speed>1</speed>
</trkpt>
<trkpt lat="33.57366212" lon="-107.35727951">
<ele>2037.9</ele>
<time>2023-11-09T21:57:00Z</time>
<speed>1.2</speed>
</trkpt>
<trkpt lat="33.57362125" lon="-107.35726188">
<ele>2037.6</ele>
<time>2023-11-09T21:57:05Z</time>
<speed>1</speed>
</trkpt>
<trkpt lat="33.57358182" lon="-107.35724017">
<ele>2037.6</ele>
<time>2023-11-09T21:57:10Z</time>
<speed>1</speed>
</trkpt>
<trkpt lat="33.57355223" lon="-107.35721169">
<ele>2036.9</ele>
<time>2023-11-09T21:57:14Z</time>
<speed>1.1</speed>
</trkpt>
<trkpt lat="33.57351911" lon="-107.35719098">
<ele>2036.1</ele>
<time>2023-11-09T21:57:18Z</time>
<speed>1.1</speed>
</trkpt>
<trkpt lat="33.57348516" lon="-107.35716692">
<ele>2036</ele>
<time>2023-11-09T21:57:22Z</time>
<speed>1.1</speed>
</trkpt>
<trkpt lat="33.57344767" lon="-107.35715128">
<ele>2036</ele>
<time>2023-11-09T21:57:26Z</time>
<speed>1.1</speed>
</trkpt>
<trkpt lat="33.57340888" lon="-107.35714197">
<ele>2035.2</ele>
<time>2023-11-09T21:57:30Z</time>
<speed>1</speed>
</trkpt>
<trkpt lat="33.57337031" lon="-107.35713516">
<ele>2034.7</ele>
<time>2023-11-09T21:57:34Z</time>
<speed>1.1</speed>
</trkpt>
<trkpt lat="33.57333327" lon="-107.35712472">
<ele>2034.4</ele>
<time>2023-11-09T21:57:38Z</time>
<speed>1</speed>
</trkpt>
<trkpt lat="33.57329874" lon="-107.35710669">
<ele>2033.9</ele>
<time>2023-11-09T21:57:42Z</time>
<speed>1.1</speed>
</trkpt>
<trkpt lat="33.57326446" lon="-107.35708366">
<ele>2033.3</ele>
<time>2023-11-09T21:57:46Z</time>
<speed>1.1</speed>
</trkpt>
<trkpt lat="33.57322764" lon="-107.35706139">
<ele>2032.4</ele>
<time>2023-11-09T21:57:50Z</time>
<speed>1.1</speed>
</trkpt>
<trkpt lat="33.57318977" lon="-107.35704059">
<ele>2032.1</ele>
<time>2023-11-09T21:57:54Z</time>
<speed>1.2</speed>
</trkpt>
<trkpt lat="33.57314801" lon="-107.35704582">
<ele>2031.3</ele>
<time>2023-11-09T21:57:58Z</time>
<speed>1.1</speed>
</trkpt>
<trkpt lat="33.57310932" lon="-107.35702079">
<ele>2030.9</ele>
<time>2023-11-09T21:58:02Z</time>
<speed>1</speed>
</trkpt>
<trkpt lat="33.57307281" lon="-107.35699502">
<ele>2030.6</ele>
<time>2023-11-09T21:58:06Z</time>
<speed>1.1</speed>
</trkpt>
<trkpt lat="33.57303176" lon="-107.35697565">
<ele>2030.2</ele>
<time>2023-11-09T21:58:10Z</time>
<speed>1.1</speed>
</trkpt>
<trkpt lat="33.57299723" lon="-107.356947">
<ele>2030.2</ele>
<time>2023-11-09T21:58:15Z</time>
<speed>1.1</speed>
</trkpt>
<trkpt lat="33.57296215" lon="-107.3569175">
<ele>2029.8</ele>
<time>2023-11-09T21:58:19Z</time>
<speed>1.2</speed>
</trkpt>
<trkpt lat="33.57292509" lon="-107.35689613">
<ele>2028.9</ele>
<time>2023-11-09T21:58:23Z</time>
<speed>1.1</speed>
</trkpt>
<trkpt lat="33.5728852" lon="-107.35688023">
<ele>2028.5</ele>
<time>2023-11-09T21:58:27Z</time>
<speed>1.1</speed>
</trkpt>
<trkpt lat="33.57284727" lon="-107.35687382">
<ele>2027.9</ele>
<time>2023-11-09T21:58:31Z</time>
<speed>1.1</speed>
</trkpt>
<trkpt lat="33.57280783" lon="-107.35687935">
<ele>2027.5</ele>
<time>2023-11-09T21:58:35Z</time>
<speed>1.1</speed>
</trkpt>
<trkpt lat="33.57276976" lon="-107.35686829">
<ele>2027.3</ele>
<time>2023-11-09T21:58:39Z</time>
<speed>1.1</speed>
</trkpt>
<trkpt lat="33.57273278" lon="-107.3568474">
<ele>2027.3</ele>
<time>2023-11-09T21:58:43Z</time>
<speed>1.1</speed>
</trkpt>
<trkpt lat="33.57269401" lon="-107.35683775">
<ele>2026.4</ele>
<time>2023-11-09T21:59:01Z</time>
<speed>0.9</speed>
</trkpt>
<trkpt lat="33.57265784" lon="-107.35682317">
<ele>2025.9</ele>
<time>2023-11-09T21:59:05Z</time>
<speed>1</speed>
</trkpt>
<trkpt lat="33.57261564" lon="-107.35680202">
<ele>2025.7</ele>
<time>2023-11-09T21:59:10Z</time>
<speed>1</speed>
</trkpt>
<trkpt lat="33.57257667" lon="-107.35679111">
<ele>2024.7</ele>
<time>2023-11-09T21:59:14Z</time>
<speed>1</speed>
</trkpt>
<trkpt lat="33.57253633" lon="-107.35677992">
<ele>2023.7</ele>
<time>2023-11-09T21:59:18Z</time>
<speed>1.1</speed>
</trkpt>
<trkpt lat="33.57250308" lon="-107.35676279">
<ele>2023.8</ele>
<time>2023-11-09T21:59:22Z</time>
<speed>1.1</speed>
</trkpt>
<trkpt lat="33.57246437" lon="-107.35674732">
<ele>2023.1</ele>
<time>2023-11-09T21:59:26Z</time>
<speed>1.1</speed>
</trkpt>
<trkpt lat="33.57242385" lon="-107.35674381">
<ele>2023.6</ele>
<time>2023-11-09T21:59:30Z</time>
<speed>1.1</speed>
</trkpt>
<trkpt lat="33.5723888" lon="-107.35677624">
<ele>2022.9</ele>
<time>2023-11-09T21:59:35Z</time>
<speed>1</speed>
</trkpt>
<trkpt lat="33.57234886" lon="-107.35678875">
<ele>2022.7</ele>
<time>2023-11-09T21:59:41Z</time>
<speed>1</speed>
</trkpt>
<trkpt lat="33.57231821" lon="-107.35676221">
<ele>2023.3</ele>
<time>2023-11-09T21:59:45Z</time>
<speed>0.9</speed>
</trkpt>
<trkpt lat="33.57228129" lon="-107.35675904">
<ele>2023.7</ele>
<time>2023-11-09T21:59:50Z</time>
<speed>0.6</speed>
</trkpt>
<trkpt lat="33.57224355" lon="-107.35673826">
<ele>2023.9</ele>
<time>2023-11-09T21:59:55Z</time>
<speed>1</speed>
</trkpt>
<trkpt lat="33.57220057" lon="-107.35671966">
<ele>2023.4</ele>
<time>2023-11-09T22:00:00Z</time>
<speed>1</speed>
</trkpt>
<trkpt lat="33.57216191" lon="-107.35671789">
<ele>2022.8</ele>
<time>2023-11-09T22:00:04Z</time>
<speed>1</speed>
</trkpt>
<trkpt lat="33.57211685" lon="-107.35671331">
<ele>2022.7</ele>
<time>2023-11-09T22:00:09Z</time>
<speed>1.1</speed>
</trkpt>
<trkpt lat="33.57207719" lon="-107.35671267">
<ele>2022.5</ele>
<time>2023-11-09T22:00:13Z</time>
<speed>1.1</speed>
</trkpt>
<trkpt lat="33.57203853" lon="-107.35670296">
<ele>2023.2</ele>
<time>2023-11-09T22:00:17Z</time>
<speed>1.1</speed>
</trkpt>
<trkpt lat="33.57200003" lon="-107.35669432">
<ele>2023.1</ele>
<time>2023-11-09T22:00:21Z</time>
<speed>1.1</speed>
</trkpt>
<trkpt lat="33.57196167" lon="-107.35669207">
<ele>2022.6</ele>
<time>2023-11-09T22:00:25Z</time>
<speed>1.1</speed>
</trkpt>
<trkpt lat="33.57192292" lon="-107.35668822">
<ele>2022.2</ele>
<time>2023-11-09T22:00:29Z</time>
<speed>1</speed>
</trkpt>
<trkpt lat="33.57188332" lon="-107.35667777">
<ele>2022.4</ele>
<time>2023-11-09T22:00:33Z</time>
<speed>1.1</speed>
</trkpt>
<trkpt lat="33.57184513" lon="-107.3566691">
<ele>2022.3</ele>
<time>2023-11-09T22:00:37Z</time>
<speed>1.1</speed>
</trkpt>
<trkpt lat="33.57180748" lon="-107.35664841">
<ele>2022.6</ele>
<time>2023-11-09T22:00:41Z</time>
<speed>1.2</speed>
</trkpt>
<trkpt lat="33.57177212" lon="-107.35662539">
<ele>2022.4</ele>
<time>2023-11-09T22:00:45Z</time>
<speed>1.1</speed>
</trkpt>
<trkpt lat="33.57173496" lon="-107.35659878">
<ele>2022</ele>
<time>2023-11-09T22:00:49Z</time>
<speed>1.1</speed>
</trkpt>
<trkpt lat="33.57169736" lon="-107.35658345">
<ele>2021.1</ele>
<time>2023-11-09T22:00:53Z</time>
<speed>1</speed>
</trkpt>
<trkpt lat="33.57165373" lon="-107.35657816">
<ele>2021</ele>
<time>2023-11-09T22:00:58Z</time>
<speed>0.9</speed>
</trkpt>
<trkpt lat="33.57162374" lon="-107.35661549">
<ele>2021.8</ele>
<time>2023-11-09T22:01:03Z</time>
<speed>0.9</speed>
</trkpt>
<trkpt lat="33.57158906" lon="-107.35664046">
<ele>2021.2</ele>
<time>2023-11-09T22:01:09Z</time>
<speed>0.8</speed>
</trkpt>
<trkpt lat="33.57155506" lon="-107.35662414">
<ele>2021.3</ele>
<time>2023-11-09T22:01:15Z</time>
<speed>1</speed>
</trkpt>
<trkpt lat="33.57151468" lon="-107.35662035">
<ele>2021.2</ele>
<time>2023-11-09T22:01:21Z</time>
<speed>0.9</speed>
</trkpt>
<trkpt lat="33.57149154" lon="-107.35657536">
<ele>2021.5</ele>
<time>2023-11-09T22:01:26Z</time>
<speed>0.9</speed>
</trkpt>
<trkpt lat="33.57147017" lon="-107.35653294">
<ele>2021.2</ele>
<time>2023-11-09T22:01:32Z</time>
<speed>0.8</speed>
</trkpt>
<trkpt lat="33.57144072" lon="-107.35650109">
<ele>2020.6</ele>
<time>2023-11-09T22:01:37Z</time>
<speed>0.9</speed>
</trkpt>
<trkpt lat="33.57140335" lon="-107.3564851">
<ele>2019.7</ele>
<time>2023-11-09T22:01:42Z</time>
<speed>0.8</speed>
</trkpt>
<trkpt lat="33.57136872" lon="-107.35647047">
<ele>2019.6</ele>
<time>2023-11-09T22:01:48Z</time>
<speed>0.8</speed>
</trkpt>
<trkpt lat="33.57133732" lon="-107.3564391">
<ele>2019.9</ele>
<time>2023-11-09T22:01:53Z</time>
<speed>0.8</speed>
</trkpt>
<trkpt lat="33.57131095" lon="-107.35640536">
<ele>2018.4</ele>
<time>2023-11-09T22:01:58Z</time>
<speed>0.9</speed>
</trkpt>
<trkpt lat="33.57128473" lon="-107.35637146">
<ele>2017.4</ele>
<time>2023-11-09T22:02:03Z</time>
<speed>0.8</speed>
</trkpt>
<trkpt lat="33.57125173" lon="-107.3563532">
<ele>2016.8</ele>
<time>2023-11-09T22:02:08Z</time>
<speed>0.9</speed>
</trkpt>
<trkpt lat="33.57121486" lon="-107.35633619">
<ele>2016.1</ele>
<time>2023-11-09T22:02:13Z</time>
<speed>0.8</speed>
</trkpt>
<trkpt lat="33.57118776" lon="-107.35629728">
<ele>2016</ele>
<time>2023-11-09T22:02:19Z</time>
<speed>0.9</speed>
</trkpt>
<trkpt lat="33.57117244" lon="-107.35625815">
<ele>2014.9</ele>
<time>2023-11-09T22:02:23Z</time>
<speed>1</speed>
</trkpt>
<trkpt lat="33.57115623" lon="-107.35621964">
<ele>2014.1</ele>
<time>2023-11-09T22:02:28Z</time>
<speed>0.7</speed>
</trkpt>
<trkpt lat="33.57111848" lon="-107.3562309">
<ele>2013.7</ele>
<time>2023-11-09T22:02:34Z</time>
<speed>0.9</speed>
</trkpt>
<trkpt lat="33.57107467" lon="-107.35623822">
<ele>2013.3</ele>
<time>2023-11-09T22:02:39Z</time>
<speed>1</speed>
</trkpt>
<trkpt lat="33.57103048" lon="-107.35623728">
<ele>2012.4</ele>
<time>2023-11-09T22:02:44Z</time>
<speed>1.2</speed>
</trkpt>
<trkpt lat="33.57099101" lon="-107.35622184">
<ele>2011.8</ele>
<time>2023-11-09T22:02:48Z</time>
<speed>1.1</speed>
</trkpt>
<trkpt lat="33.5709549" lon="-107.35621631">
<ele>2010.8</ele>
<time>2023-11-09T22:02:52Z</time>
<speed>1.1</speed>
</trkpt>
<trkpt lat="33.5709154" lon="-107.35621347">
<ele>2010.5</ele>
<time>2023-11-09T22:02:57Z</time>
<speed>1</speed>
</trkpt>
<trkpt lat="33.5708743" lon="-107.35621064">
<ele>2010.4</ele>
<time>2023-11-09T22:03:02Z</time>
<speed>0.9</speed>
</trkpt>
<trkpt lat="33.57083106" lon="-107.35620659">
<ele>2010.7</ele>
<time>2023-11-09T22:03:07Z</time>
<speed>1</speed>
</trkpt>
<trkpt lat="33.57079175" lon="-107.35620648">
<ele>2010.5</ele>
<time>2023-11-09T22:03:11Z</time>
<speed>1</speed>
</trkpt>
<trkpt lat="33.57074623" lon="-107.35620161">
<ele>2010.1</ele>
<time>2023-11-09T22:03:16Z</time>
<speed>1.1</speed>
</trkpt>
<trkpt lat="33.57070347" lon="-107.35620408">
<ele>2008.7</ele>
<time>2023-11-09T22:03:21Z</time>
<speed>1</speed>
</trkpt>
<trkpt lat="33.5706605" lon="-107.35620068">
<ele>2008.9</ele>
<time>2023-11-09T22:03:26Z</time>
<speed>1</speed>
</trkpt>
<trkpt lat="33.57061835" lon="-107.35619716">
<ele>2009.8</ele>
<time>2023-11-09T22:03:32Z</time>
<speed>0.8</speed>
</trkpt>
<trkpt lat="33.57058054" lon="-107.35620552">
<ele>2009.2</ele>
<time>2023-11-09T22:03:36Z</time>
<speed>1</speed>
</trkpt>
<trkpt lat="33.57054389" lon="-107.35621412">
<ele>2008.9</ele>
<time>2023-11-09T22:03:40Z</time>
<speed>1</speed>
</trkpt>
<trkpt lat="33.5705071" lon="-107.35623773">
<ele>2008.2</ele>
<time>2023-11-09T22:03:44Z</time>
<speed>1.1</speed>
</trkpt>
<trkpt lat="33.57047259" lon="-107.35625626">
<ele>2007.8</ele>
<time>2023-11-09T22:03:48Z</time>
<speed>1</speed>
</trkpt>
<trkpt lat="33.57043517" lon="-107.3562533">
<ele>2007</ele>
<time>2023-11-09T22:03:52Z</time>
<speed>1.1</speed>
</trkpt>
<trkpt lat="33.57039818" lon="-107.35625057">
<ele>2006.6</ele>
<time>2023-11-09T22:03:56Z</time>
<speed>1.1</speed>
</trkpt>
<trkpt lat="33.57035947" lon="-107.35625732">
<ele>2006.3</ele>
<time>2023-11-09T22:04:00Z</time>
<speed>1.1</speed>
</trkpt>
<trkpt lat="33.57031744" lon="-107.3562542">
<ele>2005.7</ele>
<time>2023-11-09T22:04:05Z</time>
<speed>0.9</speed>
</trkpt>
<trkpt lat="33.5702774" lon="-107.35626433">
<ele>2006.7</ele>
<time>2023-11-09T22:05:22Z</time>
<speed>1</speed>
</trkpt>
<trkpt lat="33.57023636" lon="-107.3562552">
<ele>2007.8</ele>
<time>2023-11-09T22:05:26Z</time>
<speed>1.1</speed>
</trkpt>
<trkpt lat="33.57019579" lon="-107.35624546">
<ele>2006.4</ele>
<time>2023-11-09T22:05:30Z</time>
<speed>1</speed>
</trkpt>
<trkpt lat="33.5701561" lon="-107.35623366">
<ele>2007.2</ele>
<time>2023-11-09T22:05:34Z</time>
<speed>1</speed>
</trkpt>
<trkpt lat="33.57011688" lon="-107.3562242">
<ele>2005.3</ele>
<time>2023-11-09T22:05:38Z</time>
<speed>1.1</speed>
</trkpt>
<trkpt lat="33.57007645" lon="-107.35622087">
<ele>2004.9</ele>
<time>2023-11-09T22:05:42Z</time>
<speed>1.1</speed>
</trkpt>
<trkpt lat="33.57003888" lon="-107.3562251">
<ele>2005</ele>
<time>2023-11-09T22:05:46Z</time>
<speed>1</speed>
</trkpt>
<trkpt lat="33.57000141" lon="-107.35623622">
<ele>2003.3</ele>
<time>2023-11-09T22:05:50Z</time>
<speed>1</speed>
</trkpt>
<trkpt lat="33.56995911" lon="-107.35624132">
<ele>2004.9</ele>
<time>2023-11-09T22:05:55Z</time>
<speed>1</speed>
</trkpt>
<trkpt lat="33.5699142" lon="-107.35624528">
<ele>2004.3</ele>
<time>2023-11-09T22:06:00Z</time>
<speed>1</speed>
</trkpt>
<trkpt lat="33.56987968" lon="-107.35626183">
<ele>2004.1</ele>
<time>2023-11-09T22:06:04Z</time>
<speed>1.1</speed>
</trkpt>
<trkpt lat="33.56984471" lon="-107.35628221">
<ele>2003.3</ele>
<time>2023-11-09T22:06:08Z</time>
<speed>1.1</speed>
</trkpt>
<trkpt lat="33.56980705" lon="-107.35628991">
<ele>2002.9</ele>
<time>2023-11-09T22:06:12Z</time>
<speed>1</speed>
</trkpt>
<trkpt lat="33.56976802" lon="-107.35630052">
<ele>2003.4</ele>
<time>2023-11-09T22:06:16Z</time>
<speed>1</speed>
</trkpt>
<trkpt lat="33.5697296" lon="-107.35630409">
<ele>2003.4</ele>
<time>2023-11-09T22:06:20Z</time>
<speed>1</speed>
</trkpt>
<trkpt lat="33.56969235" lon="-107.35631617">
<ele>2004.2</ele>
<time>2023-11-09T22:06:24Z</time>
<speed>1.1</speed>
</trkpt>
<trkpt lat="33.56965905" lon="-107.35634355">
<ele>2002.6</ele>
<time>2023-11-09T22:06:28Z</time>
<speed>1</speed>
</trkpt>
<trkpt lat="33.56962376" lon="-107.35635368">
<ele>2001.6</ele>
<time>2023-11-09T22:06:32Z</time>
<speed>1.1</speed>
</trkpt>
<trkpt lat="33.56958129" lon="-107.35634092">
<ele>2000.6</ele>
<time>2023-11-09T22:06:37Z</time>
<speed>1.1</speed>
</trkpt>
<trkpt lat="33.56953537" lon="-107.35634382">
<ele>2001.4</ele>
<time>2023-11-09T22:06:41Z</time>
<speed>1.4</speed>
</trkpt>
<trkpt lat="33.56949532" lon="-107.35635348">
<ele>2000.3</ele>
<time>2023-11-09T22:06:45Z</time>
<speed>1.3</speed>
</trkpt>
<trkpt lat="33.56946331" lon="-107.35632957">
<ele>1998.4</ele>
<time>2023-11-09T22:06:48Z</time>
<speed>1.3</speed>
</trkpt>
<trkpt lat="33.56942301" lon="-107.35630917">
<ele>1997.2</ele>
<time>2023-11-09T22:06:53Z</time>
<speed>1</speed>
</trkpt>
<trkpt lat="33.56938592" lon="-107.35630422">
<ele>1995.4</ele>
<time>2023-11-09T22:06:59Z</time>
<speed>1</speed>
</trkpt>
<trkpt lat="33.56934648" lon="-107.35630252">
<ele>1994.9</ele>
<time>2023-11-09T22:07:03Z</time>
<speed>1.2</speed>
</trkpt>
<trkpt lat="33.5693102" lon="-107.35629049">
<ele>1993.7</ele>
<time>2023-11-09T22:07:07Z</time>
<speed>1</speed>
</trkpt>
<trkpt lat="33.56926762" lon="-107.35628739">
<ele>1994.1</ele>
<time>2023-11-09T22:07:12Z</time>
<speed>1.1</speed>
</trkpt>
<trkpt lat="33.56922828" lon="-107.35629677">
<ele>1995.3</ele>
<time>2023-11-09T22:07:16Z</time>
<speed>1</speed>
</trkpt>
<trkpt lat="33.56918718" lon="-107.35629363">
<ele>1995.4</ele>
<time>2023-11-09T22:07:21Z</time>
<speed>1.1</speed>
</trkpt>
<trkpt lat="33.56914959" lon="-107.35628689">
<ele>1994.1</ele>
<time>2023-11-09T22:07:25Z</time>
<speed>1.4</speed>
</trkpt>
<trkpt lat="33.56910484" lon="-107.35628985">
<ele>1996.7</ele>
<time>2023-11-09T22:07:30Z</time>
<speed>1.2</speed>
</trkpt>
<trkpt lat="33.56907123" lon="-107.35630556">
<ele>1997.5</ele>
<time>2023-11-09T22:07:33Z</time>
<speed>1.1</speed>
</trkpt>
<trkpt lat="33.56902826" lon="-107.35630503">
<ele>1996.9</ele>
<time>2023-11-09T22:07:37Z</time>
<speed>1.3</speed>
</trkpt>
<trkpt lat="33.56898978" lon="-107.35629644">
<ele>1999.3</ele>
<time>2023-11-09T22:07:41Z</time>
<speed>0.8</speed>
</trkpt>
<trkpt lat="33.56894593" lon="-107.35628959">
<ele>2000</ele>
<time>2023-11-09T22:07:45Z</time>
<speed>1</speed>
</trkpt>
<trkpt lat="33.56890897" lon="-107.35627908">
<ele>1999.8</ele>
<time>2023-11-09T22:07:49Z</time>
<speed>1</speed>
</trkpt>
<trkpt lat="33.56887015" lon="-107.35627881">
<ele>1999.2</ele>
<time>2023-11-09T22:07:54Z</time>
<speed>1.2</speed>
</trkpt>
<trkpt lat="33.56882559" lon="-107.35627351">
<ele>1998.6</ele>
<time>2023-11-09T22:07:57Z</time>
<speed>1.8</speed>
</trkpt>
<trkpt lat="33.56878644" lon="-107.35624716">
<ele>1998.5</ele>
<time>2023-11-09T22:08:01Z</time>
<speed>1.2</speed>
</trkpt>
<trkpt lat="33.56874852" lon="-107.35624013">
<ele>1997.7</ele>
<time>2023-11-09T22:08:06Z</time>
<speed>1</speed>
</trkpt>
<trkpt lat="33.56870784" lon="-107.3562503">
<ele>1997.7</ele>
<time>2023-11-09T22:08:21Z</time>
<speed>1</speed>
</trkpt>
<trkpt lat="33.56867246" lon="-107.35622675">
<ele>1994.1</ele>
<time>2023-11-09T22:08:26Z</time>
<speed>1</speed>
</trkpt>
<trkpt lat="33.56863567" lon="-107.35622249">
<ele>1993.5</ele>
<time>2023-11-09T22:08:31Z</time>
<speed>1</speed>
</trkpt>
<trkpt lat="33.56859371" lon="-107.35621816">
<ele>1992.7</ele>
<time>2023-11-09T22:08:36Z</time>
<speed>1</speed>
</trkpt>
<trkpt lat="33.56855775" lon="-107.35620677">
<ele>1992</ele>
<time>2023-11-09T22:08:40Z</time>
<speed>0.9</speed>
</trkpt>
<trkpt lat="33.5685178" lon="-107.35619366">
<ele>1992.1</ele>
<time>2023-11-09T22:08:44Z</time>
<speed>1</speed>
</trkpt>
<trkpt lat="33.5684809" lon="-107.3561794">
<ele>1992.5</ele>
<time>2023-11-09T22:08:49Z</time>
<speed>0.6</speed>
</trkpt>
<trkpt lat="33.56844293" lon="-107.35619584">
<ele>1992.5</ele>
<time>2023-11-09T22:08:53Z</time>
<speed>1.1</speed>
</trkpt>
<trkpt lat="33.56840535" lon="-107.35618413">
<ele>1992.1</ele>
<time>2023-11-09T22:08:57Z</time>
<speed>1.1</speed>
</trkpt>
<trkpt lat="33.56836458" lon="-107.35618553">
<ele>1993.4</ele>
<time>2023-11-09T22:09:01Z</time>
<speed>1</speed>
</trkpt>
<trkpt lat="33.56832196" lon="-107.35617337">
<ele>1994.1</ele>
<time>2023-11-09T22:09:05Z</time>
<speed>1</speed>
</trkpt>
<trkpt lat="33.56827883" lon="-107.35616926">
<ele>1995.1</ele>
<time>2023-11-09T22:09:09Z</time>
<speed>1</speed>
</trkpt>
<trkpt lat="33.56823528" lon="-107.35617127">
<ele>1994.7</ele>
<time>2023-11-09T22:09:14Z</time>
<speed>0.9</speed>
</trkpt>
<trkpt lat="33.5682024" lon="-107.35614362">
<ele>1995</ele>
<time>2023-11-09T22:09:18Z</time>
<speed>1.1</speed>
</trkpt>
<trkpt lat="33.56817139" lon="-107.35611141">
<ele>1995.1</ele>
<time>2023-11-09T22:09:23Z</time>
<speed>1.1</speed>
</trkpt>
<trkpt lat="33.56813613" lon="-107.35608694">
<ele>1995.8</ele>
<time>2023-11-09T22:09:27Z</time>
<speed>1.1</speed>
</trkpt>
<trkpt lat="33.56810458" lon="-107.35606277">
<ele>1996.2</ele>
<time>2023-11-09T22:09:31Z</time>
<speed>1</speed>
</trkpt>
<trkpt lat="33.56807219" lon="-107.35603464">
<ele>1996.6</ele>
<time>2023-11-09T22:09:35Z</time>
<speed>1.1</speed>
</trkpt>
<trkpt lat="33.56804236" lon="-107.35600437">
<ele>1996.9</ele>
<time>2023-11-09T22:09:40Z</time>
<speed>1</speed>
</trkpt>
<trkpt lat="33.5680149" lon="-107.35597134">
<ele>1996.5</ele>
<time>2023-11-09T22:09:45Z</time>
<speed>1</speed>
</trkpt>
<trkpt lat="33.56797827" lon="-107.35596894">
<ele>1995.4</ele>
<time>2023-11-09T22:10:12Z</time>
<speed>0.9</speed>
</trkpt>
<trkpt lat="33.567953" lon="-107.35592671">
<ele>1994.3</ele>
<time>2023-11-09T22:10:17Z</time>
<speed>0.9</speed>
</trkpt>
<trkpt lat="33.56791891" lon="-107.35591108">
<ele>1993.7</ele>
<time>2023-11-09T22:10:22Z</time>
<speed>0.8</speed>
</trkpt>
<trkpt lat="33.56787761" lon="-107.35590605">
<ele>1993.6</ele>
<time>2023-11-09T22:10:27Z</time>
<speed>1</speed>
</trkpt>
<trkpt lat="33.56783372" lon="-107.35589373">
<ele>1993.2</ele>
<time>2023-11-09T22:10:32Z</time>
<speed>0.9</speed>
</trkpt>
<trkpt lat="33.56780389" lon="-107.35586547">
<ele>1994.2</ele>
<time>2023-11-09T22:10:35Z</time>
<speed>0.9</speed>
</trkpt>
<trkpt lat="33.56776885" lon="-107.35585104">
<ele>1993.6</ele>
<time>2023-11-09T22:10:39Z</time>
<speed>0.9</speed>
</trkpt>
<trkpt lat="33.56772953" lon="-107.35584311">
<ele>1994.5</ele>
<time>2023-11-09T22:10:43Z</time>
<speed>1.1</speed>
</trkpt>
<trkpt lat="33.56768993" lon="-107.35583693">
<ele>1995.4</ele>
<time>2023-11-09T22:10:47Z</time>
<speed>1</speed>
</trkpt>
<trkpt lat="33.56765287" lon="-107.35583685">
<ele>1995.7</ele>
<time>2023-11-09T22:10:51Z</time>
<speed>0.9</speed>
</trkpt>
<trkpt lat="33.56760927" lon="-107.35584143">
<ele>1994.9</ele>
<time>2023-11-09T22:10:56Z</time>
<speed>1</speed>
</trkpt>
<trkpt lat="33.56756611" lon="-107.35584976">
<ele>1993.6</ele>
<time>2023-11-09T22:11:01Z</time>
<speed>1</speed>
</trkpt>
<trkpt lat="33.56752432" lon="-107.35585061">
<ele>1992.4</ele>
<time>2023-11-09T22:11:06Z</time>
<speed>1</speed>
</trkpt>
<trkpt lat="33.56749268" lon="-107.35582395">
<ele>1991.9</ele>
<time>2023-11-09T22:11:10Z</time>
<speed>1.2</speed>
</trkpt>
<trkpt lat="33.56746044" lon="-107.35579688">
<ele>1993.5</ele>
<time>2023-11-09T22:11:14Z</time>
<speed>1</speed>
</trkpt>
<trkpt lat="33.56742427" lon="-107.3557713">
<ele>1994.3</ele>
<time>2023-11-09T22:11:19Z</time>
<speed>0.9</speed>
</trkpt>
<trkpt lat="33.56740764" lon="-107.35572964">
<ele>1994.6</ele>
<time>2023-11-09T22:11:24Z</time>
<speed>1</speed>
</trkpt>
<trkpt lat="33.56738023" lon="-107.35568861">
<ele>1995.7</ele>
<time>2023-11-09T22:11:29Z</time>
<speed>1</speed>
</trkpt>
<trkpt lat="33.56734894" lon="-107.35566354">
<ele>1996</ele>
<time>2023-11-09T22:11:33Z</time>
<speed>1</speed>
</trkpt>
<trkpt lat="33.56732318" lon="-107.35563072">
<ele>1996.3</ele>
<time>2023-11-09T22:11:37Z</time>
<speed>1</speed>
</trkpt>
<trkpt lat="33.56728549" lon="-107.35560936">
<ele>1993.8</ele>
<time>2023-11-09T22:11:42Z</time>
<speed>1</speed>
</trkpt>
<trkpt lat="33.56724888" lon="-107.3555922">
<ele>1993</ele>
<time>2023-11-09T22:11:47Z</time>
<speed>1</speed>
</trkpt>
<trkpt lat="33.56721063" lon="-107.35559871">
<ele>1992.3</ele>
<time>2023-11-09T22:11:58Z</time>
<speed>0.9</speed>
</trkpt>
<trkpt lat="33.56717603" lon="-107.35558537">
<ele>1991.6</ele>
<time>2023-11-09T22:12:54Z</time>
<speed>0</speed>
</trkpt>
<trkpt lat="33.56713782" lon="-107.35559263">
<ele>1990</ele>
<time>2023-11-09T22:13:06Z</time>
<speed>0.6</speed>
</trkpt>
<trkpt lat="33.56710641" lon="-107.35557016">
<ele>1990.4</ele>
<time>2023-11-09T22:13:13Z</time>
<speed>0.7</speed>
</trkpt>
<trkpt lat="33.56706372" lon="-107.35558396">
<ele>1988.7</ele>
<time>2023-11-09T22:13:19Z</time>
<speed>0.9</speed>
</trkpt>
<trkpt lat="33.56702479" lon="-107.3555674">
<ele>1988.9</ele>
<time>2023-11-09T22:13:25Z</time>
<speed>0.7</speed>
</trkpt>
<trkpt lat="33.56699917" lon="-107.35553295">
<ele>1989.2</ele>
<time>2023-11-09T22:13:43Z</time>
<speed>0.7</speed>
</trkpt>
<trkpt lat="33.56696225" lon="-107.35554187">
<ele>1989.5</ele>
<time>2023-11-09T22:13:55Z</time>
<speed>0.9</speed>
</trkpt>
<trkpt lat="33.56694375" lon="-107.35558095">
<ele>1989.2</ele>
<time>2023-11-09T22:14:06Z</time>
<speed>0.8</speed>
</trkpt>
<trkpt lat="33.56690441" lon="-107.35556471">
<ele>1988.6</ele>
<time>2023-11-09T22:14:11Z</time>
<speed>0.9</speed>
</trkpt>
<trkpt lat="33.5668651" lon="-107.35553777">
<ele>1990.1</ele>
<time>2023-11-09T22:14:15Z</time>
<speed>1</speed>
</trkpt>
<trkpt lat="33.56683201" lon="-107.35551649">
<ele>1990.6</ele>
<time>2023-11-09T22:14:18Z</time>
<speed>1.4</speed>
</trkpt>
<trkpt lat="33.56679828" lon="-107.35549252">
<ele>1990.5</ele>
<time>2023-11-09T22:14:21Z</time>
<speed>1</speed>
</trkpt>
<trkpt lat="33.56676906" lon="-107.35546212">
<ele>1989.8</ele>
<time>2023-11-09T22:14:25Z</time>
<speed>1</speed>
</trkpt>
<trkpt lat="33.56673007" lon="-107.35543951">
<ele>1989.3</ele>
<time>2023-11-09T22:14:30Z</time>
<speed>1.1</speed>
</trkpt>
<trkpt lat="33.56669034" lon="-107.35544719">
<ele>1988.8</ele>
<time>2023-11-09T22:14:34Z</time>
<speed>1</speed>
</trkpt>
<trkpt lat="33.56664644" lon="-107.35545558">
<ele>1988.1</ele>
<time>2023-11-09T22:14:39Z</time>
<speed>1</speed>
</trkpt>
<trkpt lat="33.56661175" lon="-107.35547245">
<ele>1988</ele>
<time>2023-11-09T22:14:44Z</time>
<speed>0.6</speed>
</trkpt>
<trkpt lat="33.56657082" lon="-107.35547079">
<ele>1984.8</ele>
<time>2023-11-09T22:14:57Z</time>
<speed>0.9</speed>
</trkpt>
<trkpt lat="33.56653371" lon="-107.35545117">
<ele>1984.1</ele>
<time>2023-11-09T22:15:01Z</time>
<speed>1.1</speed>
</trkpt>
<trkpt lat="33.56649604" lon="-107.35543995">
<ele>1986.4</ele>
<time>2023-11-09T22:15:07Z</time>
<speed>0.9</speed>
</trkpt>
<trkpt lat="33.56645066" lon="-107.35544949">
<ele>1988.8</ele>
<time>2023-11-09T22:15:14Z</time>
<speed>1.1</speed>
</trkpt>
<trkpt lat="33.56641156" lon="-107.35544406">
<ele>1987.3</ele>
<time>2023-11-09T22:15:19Z</time>
<speed>0.8</speed>
</trkpt>
<trkpt lat="33.56637627" lon="-107.35545826">
<ele>1986.2</ele>
<time>2023-11-09T22:15:30Z</time>
<speed>0.7</speed>
</trkpt>
<trkpt lat="33.5663398" lon="-107.35548193">
<ele>1985.9</ele>
<time>2023-11-09T22:15:35Z</time>
<speed>0.8</speed>
</trkpt>
<trkpt lat="33.56630239" lon="-107.35548619">
<ele>1985</ele>
<time>2023-11-09T22:15:41Z</time>
<speed>0.8</speed>
</trkpt>
<trkpt lat="33.56626162" lon="-107.35547776">
<ele>1987.8</ele>
<time>2023-11-09T22:15:47Z</time>
<speed>0.9</speed>
</trkpt>
<trkpt lat="33.56622363" lon="-107.35545618">
<ele>1989.2</ele>
<time>2023-11-09T22:15:52Z</time>
<speed>0.8</speed>
</trkpt>
<trkpt lat="33.56618635" lon="-107.35547114">
<ele>1989.7</ele>
<time>2023-11-09T22:15:56Z</time>
<speed>1</speed>
</trkpt>
<trkpt lat="33.56615442" lon="-107.35550013">
<ele>1988.5</ele>
<time>2023-11-09T22:16:19Z</time>
<speed>0.6</speed>
</trkpt>
<trkpt lat="33.5661205" lon="-107.35552266">
<ele>1987.9</ele>
<time>2023-11-09T22:16:23Z</time>
<speed>1</speed>
</trkpt>
<trkpt lat="33.56608799" lon="-107.35554673">
<ele>1987</ele>
<time>2023-11-09T22:16:37Z</time>
<speed>0.9</speed>
</trkpt>
<trkpt lat="33.56605045" lon="-107.35553897">
<ele>1986.3</ele>
<time>2023-11-09T22:16:41Z</time>
<speed>1</speed>
</trkpt>
<trkpt lat="33.56600816" lon="-107.35555454">
<ele>1985.5</ele>
<time>2023-11-09T22:16:46Z</time>
<speed>0.9</speed>
</trkpt>
<trkpt lat="33.56596649" lon="-107.35557436">
<ele>1986.4</ele>
<time>2023-11-09T22:16:51Z</time>
<speed>0.9</speed>
</trkpt>
<trkpt lat="33.5659274" lon="-107.35558276">
<ele>1987.7</ele>
<time>2023-11-09T22:16:55Z</time>
<speed>1</speed>
</trkpt>
<trkpt lat="33.56589119" lon="-107.35560028">
<ele>1987.8</ele>
<time>2023-11-09T22:16:59Z</time>
<speed>0.9</speed>
</trkpt>
<trkpt lat="33.56584938" lon="-107.35561044">
<ele>1987.9</ele>
<time>2023-11-09T22:17:04Z</time>
<speed>1.1</speed>
</trkpt>
<trkpt lat="33.56581406" lon="-107.35562827">
<ele>1986.2</ele>
<time>2023-11-09T22:17:09Z</time>
<speed>0.9</speed>
</trkpt>
<trkpt lat="33.56578368" lon="-107.35565823">
<ele>1985.2</ele>
<time>2023-11-09T22:17:14Z</time>
<speed>0.9</speed>
</trkpt>
<trkpt lat="33.56577273" lon="-107.35570739">
<ele>1983.9</ele>
<time>2023-11-09T22:17:18Z</time>
<speed>1.2</speed>
</trkpt>
<trkpt lat="33.56573412" lon="-107.35569194">
<ele>1984.6</ele>
<time>2023-11-09T22:17:25Z</time>
<speed>0.9</speed>
</trkpt>
<trkpt lat="33.56569686" lon="-107.35566117">
<ele>1984.7</ele>
<time>2023-11-09T22:17:36Z</time>
<speed>0.9</speed>
</trkpt>
<trkpt lat="33.56565782" lon="-107.35564098">
<ele>1985.3</ele>
<time>2023-11-09T22:17:41Z</time>
<speed>1</speed>
</trkpt>
<trkpt lat="33.56562697" lon="-107.35560486">
<ele>1985.2</ele>
<time>2023-11-09T22:17:45Z</time>
<speed>1.1</speed>
</trkpt>
<trkpt lat="33.56558719" lon="-107.35558715">
<ele>1984.8</ele>
<time>2023-11-09T22:17:51Z</time>
<speed>0.9</speed>
</trkpt>
<trkpt lat="33.56554864" lon="-107.35556845">
<ele>1984.1</ele>
<time>2023-11-09T22:17:56Z</time>
<speed>1</speed>
</trkpt>
<trkpt lat="33.56550733" lon="-107.35556771">
<ele>1982.4</ele>
<time>2023-11-09T22:18:02Z</time>
<speed>0.9</speed>
</trkpt>
<trkpt lat="33.56547006" lon="-107.35556249">
<ele>1981</ele>
<time>2023-11-09T22:18:08Z</time>
<speed>0.6</speed>
</trkpt>
<trkpt lat="33.56542895" lon="-107.3555796">
<ele>1979.7</ele>
<time>2023-11-09T22:18:15Z</time>
<speed>0.7</speed>
</trkpt>
<trkpt lat="33.56539053" lon="-107.35558209">
<ele>1979.7</ele>
<time>2023-11-09T22:18:20Z</time>
<speed>0.7</speed>
</trkpt>
<trkpt lat="33.5653477" lon="-107.35557162">
<ele>1981.5</ele>
<time>2023-11-09T22:18:24Z</time>
<speed>1</speed>
</trkpt>
<trkpt lat="33.56531274" lon="-107.35555823">
<ele>1982</ele>
<time>2023-11-09T22:18:56Z</time>
<speed>0.5</speed>
</trkpt>
<trkpt lat="33.56528261" lon="-107.35552238">
<ele>1983.8</ele>
<time>2023-11-09T22:19:02Z</time>
<speed>0.9</speed>
</trkpt>
<trkpt lat="33.56525472" lon="-107.35548876">
<ele>1983.2</ele>
<time>2023-11-09T22:19:06Z</time>
<speed>0.8</speed>
</trkpt>
<trkpt lat="33.56521978" lon="-107.35546482">
<ele>1981</ele>
<time>2023-11-09T22:19:27Z</time>
<speed>1</speed>
</trkpt>
<trkpt lat="33.56518566" lon="-107.35543765">
<ele>1980.3</ele>
<time>2023-11-09T22:19:31Z</time>
<speed>1.2</speed>
</trkpt>
<trkpt lat="33.56515227" lon="-107.35541973">
<ele>1980</ele>
<time>2023-11-09T22:19:36Z</time>
<speed>0.9</speed>
</trkpt>
<trkpt lat="33.56511817" lon="-107.35538768">
<ele>1979.3</ele>
<time>2023-11-09T22:19:40Z</time>
<speed>1.3</speed>
</trkpt>
<trkpt lat="33.56508879" lon="-107.35535055">
<ele>1978.8</ele>
<time>2023-11-09T22:19:45Z</time>
<speed>1</speed>
</trkpt>
<trkpt lat="33.56505876" lon="-107.35532466">
<ele>1978.9</ele>
<time>2023-11-09T22:19:49Z</time>
<speed>1</speed>
</trkpt>
<trkpt lat="33.56502638" lon="-107.35529851">
<ele>1978.8</ele>
<time>2023-11-09T22:19:53Z</time>
<speed>1</speed>
</trkpt>
<trkpt lat="33.56498473" lon="-107.35529344">
<ele>1979</ele>
<time>2023-11-09T22:19:57Z</time>
<speed>1.1</speed>
</trkpt>
<trkpt lat="33.56495791" lon="-107.35525964">
<ele>1978.5</ele>
<time>2023-11-09T22:20:01Z</time>
<speed>1.1</speed>
</trkpt>
<trkpt lat="33.56492786" lon="-107.35522401">
<ele>1978.3</ele>
<time>2023-11-09T22:20:06Z</time>
<speed>1</speed>
</trkpt>
<trkpt lat="33.56488868" lon="-107.35521456">
<ele>1977.6</ele>
<time>2023-11-09T22:20:11Z</time>
<speed>1.1</speed>
</trkpt>
<trkpt lat="33.56486093" lon="-107.35518657">
<ele>1977</ele>
<time>2023-11-09T22:20:15Z</time>
<speed>1</speed>
</trkpt>
<trkpt lat="33.56482231" lon="-107.35515955">
<ele>1975.9</ele>
<time>2023-11-09T22:20:20Z</time>
<speed>1</speed>
</trkpt>
<trkpt lat="33.56478548" lon="-107.35514273">
<ele>1975.6</ele>
<time>2023-11-09T22:20:24Z</time>
<speed>1</speed>
</trkpt>
<trkpt lat="33.56475391" lon="-107.35511445">
<ele>1976.1</ele>
<time>2023-11-09T22:20:28Z</time>
<speed>1</speed>
</trkpt>
<trkpt lat="33.56472005" lon="-107.35508721">
<ele>1975.6</ele>
<time>2023-11-09T22:20:32Z</time>
<speed>1.1</speed>
</trkpt>
<trkpt lat="33.56468072" lon="-107.35506837">
<ele>1975.6</ele>
<time>2023-11-09T22:20:36Z</time>
<speed>1.1</speed>
</trkpt>
<trkpt lat="33.56465506" lon="-107.35503222">
<ele>1976</ele>
<time>2023-11-09T22:20:40Z</time>
<speed>0.9</speed>
</trkpt>
<trkpt lat="33.56462685" lon="-107.35499581">
<ele>1975.1</ele>
<time>2023-11-09T22:20:46Z</time>
<speed>0.9</speed>
</trkpt>
<trkpt lat="33.56460061" lon="-107.35496362">
<ele>1975.2</ele>
<time>2023-11-09T22:20:52Z</time>
<speed>0.9</speed>
</trkpt>
<trkpt lat="33.56457254" lon="-107.35493063">
<ele>1973.8</ele>
<time>2023-11-09T22:20:57Z</time>
<speed>1</speed>
</trkpt>
<trkpt lat="33.56454709" lon="-107.35489469">
<ele>1972.9</ele>
<time>2023-11-09T22:21:02Z</time>
<speed>1</speed>
</trkpt>
<trkpt lat="33.56452182" lon="-107.3548597">
<ele>1972.1</ele>
<time>2023-11-09T22:21:06Z</time>
<speed>1.1</speed>
</trkpt>
<trkpt lat="33.56449937" lon="-107.35482424">
<ele>1970.6</ele>
<time>2023-11-09T22:21:10Z</time>
<speed>1</speed>
</trkpt>
<trkpt lat="33.56447409" lon="-107.35478384">
<ele>1970.2</ele>
<time>2023-11-09T22:21:15Z</time>
<speed>0.9</speed>
</trkpt>
<trkpt lat="33.56445692" lon="-107.35473347">
<ele>1971.1</ele>
<time>2023-11-09T22:21:20Z</time>
<speed>0.8</speed>
</trkpt>
<trkpt lat="33.5644512" lon="-107.35468769">
<ele>1971.1</ele>
<time>2023-11-09T22:21:36Z</time>
<speed>1</speed>
</trkpt>
<trkpt lat="33.56441315" lon="-107.35466309">
<ele>1970.4</ele>
<time>2023-11-09T22:21:41Z</time>
<speed>1</speed>
</trkpt>
<trkpt lat="33.56438258" lon="-107.35462568">
<ele>1969.8</ele>
<time>2023-11-09T22:21:47Z</time>
<speed>1</speed>
</trkpt>
<trkpt lat="33.564352" lon="-107.35458284">
<ele>1969.6</ele>
<time>2023-11-09T22:21:52Z</time>
<speed>1.1</speed>
</trkpt>
<trkpt lat="33.56432372" lon="-107.35454395">
<ele>1969.3</ele>
<time>2023-11-09T22:21:56Z</time>
<speed>0.9</speed>
</trkpt>
<trkpt lat="33.56430845" lon="-107.35449954">
<ele>1970</ele>
<time>2023-11-09T22:22:00Z</time>
<speed>1</speed>
</trkpt>
<trkpt lat="33.56428949" lon="-107.35445981">
<ele>1969.5</ele>
<time>2023-11-09T22:22:04Z</time>
<speed>1.1</speed>
</trkpt>
<trkpt lat="33.56427251" lon="-107.35441347">
<ele>1968.5</ele>
<time>2023-11-09T22:22:09Z</time>
<speed>0.9</speed>
</trkpt>
<trkpt lat="33.56425486" lon="-107.35436471">
<ele>1968.7</ele>
<time>2023-11-09T22:22:14Z</time>
<speed>1.1</speed>
</trkpt>
<trkpt lat="33.56423521" lon="-107.35432683">
<ele>1968.3</ele>
<time>2023-11-09T22:22:19Z</time>
<speed>1</speed>
</trkpt>
<trkpt lat="33.56421541" lon="-107.35428735">
<ele>1966.9</ele>
<time>2023-11-09T22:22:24Z</time>
<speed>1</speed>
</trkpt>
<trkpt lat="33.56420007" lon="-107.3542445">
<ele>1966.7</ele>
<time>2023-11-09T22:22:29Z</time>
<speed>1</speed>
</trkpt>
<trkpt lat="33.56418363" lon="-107.35419301">
<ele>1967.2</ele>
<time>2023-11-09T22:22:34Z</time>
<speed>1</speed>
</trkpt>
<trkpt lat="33.56417806" lon="-107.35415039">
<ele>1967.3</ele>
<time>2023-11-09T22:22:38Z</time>
<speed>1</speed>
</trkpt>
<trkpt lat="33.56416859" lon="-107.35410741">
<ele>1965.1</ele>
<time>2023-11-09T22:22:46Z</time>
<speed>0.6</speed>
</trkpt>
<trkpt lat="33.56414703" lon="-107.35406628">
<ele>1964.8</ele>
<time>2023-11-09T22:22:53Z</time>
<speed>1</speed>
</trkpt>
<trkpt lat="33.56413711" lon="-107.35402365">
<ele>1964.2</ele>
<time>2023-11-09T22:22:57Z</time>
<speed>1</speed>
</trkpt>
<trkpt lat="33.56412073" lon="-107.35397582">
<ele>1964.2</ele>
<time>2023-11-09T22:23:01Z</time>
<speed>0.8</speed>
</trkpt>
<trkpt lat="33.56410978" lon="-107.35393165">
<ele>1963</ele>
<time>2023-11-09T22:23:05Z</time>
<speed>1</speed>
</trkpt>
<trkpt lat="33.56408969" lon="-107.35388959">
<ele>1962.5</ele>
<time>2023-11-09T22:23:10Z</time>
<speed>0.9</speed>
</trkpt>
<trkpt lat="33.56405694" lon="-107.35385146">
<ele>1962.5</ele>
<time>2023-11-09T22:23:15Z</time>
<speed>1</speed>
</trkpt>
<trkpt lat="33.56401734" lon="-107.35383236">
<ele>1961.9</ele>
<time>2023-11-09T22:23:34Z</time>
<speed>0.8</speed>
</trkpt>
<trkpt lat="33.56402348" lon="-107.35378786">
<ele>1958.5</ele>
<time>2023-11-09T22:23:50Z</time>
<speed>0.6</speed>
</trkpt>
<trkpt lat="33.56405942" lon="-107.35377461">
<ele>1957.8</ele>
<time>2023-11-09T22:23:56Z</time>
<speed>0.6</speed>
</trkpt>
<trkpt lat="33.56407873" lon="-107.35373203">
<ele>1957</ele>
<time>2023-11-09T22:24:06Z</time>
<speed>0.8</speed>
</trkpt>
<trkpt lat="33.56411519" lon="-107.35371737">
<ele>1957.2</ele>
<time>2023-11-09T22:24:11Z</time>
<speed>0.9</speed>
</trkpt>
<trkpt lat="33.56412101" lon="-107.35367314">
<ele>1956</ele>
<time>2023-11-09T22:24:18Z</time>
<speed>0</speed>
</trkpt>
<trkpt lat="33.56409901" lon="-107.3536367">
<ele>1955.6</ele>
<time>2023-11-09T22:24:25Z</time>
<speed>0.5</speed>
</trkpt>
<trkpt lat="33.56407871" lon="-107.35359539">
<ele>1956.5</ele>
<time>2023-11-09T22:24:32Z</time>
<speed>1</speed>
</trkpt>
<trkpt lat="33.56406189" lon="-107.3535479">
<ele>1955.4</ele>
<time>2023-11-09T22:24:37Z</time>
<speed>1</speed>
</trkpt>
<trkpt lat="33.56403305" lon="-107.35351789">
<ele>1954.7</ele>
<time>2023-11-09T22:24:41Z</time>
<speed>1.1</speed>
</trkpt>
<trkpt lat="33.56399556" lon="-107.35350329">
<ele>1954.2</ele>
<time>2023-11-09T22:24:46Z</time>
<speed>0.9</speed>
</trkpt>
<trkpt lat="33.56395764" lon="-107.35349216">
<ele>1954.7</ele>
<time>2023-11-09T22:24:51Z</time>
<speed>0.9</speed>
</trkpt>
<trkpt lat="33.56392161" lon="-107.35347298">
<ele>1952.2</ele>
<time>2023-11-09T22:24:56Z</time>
<speed>0.8</speed>
</trkpt>
<trkpt lat="33.56388078" lon="-107.35345537">
<ele>1952.9</ele>
<time>2023-11-09T22:25:03Z</time>
<speed>0.8</speed>
</trkpt>
<trkpt lat="33.56384568" lon="-107.35342579">
<ele>1951.1</ele>
<time>2023-11-09T22:25:09Z</time>
<speed>0.8</speed>
</trkpt>
<trkpt lat="33.56381051" lon="-107.3533911">
<ele>1950.2</ele>
<time>2023-11-09T22:25:14Z</time>
<speed>0.9</speed>
</trkpt>
<trkpt lat="33.56378277" lon="-107.35335974">
<ele>1949.1</ele>
<time>2023-11-09T22:25:19Z</time>
<speed>0.9</speed>
</trkpt>
<trkpt lat="33.56376086" lon="-107.35332476">
<ele>1946</ele>
<time>2023-11-09T22:25:25Z</time>
<speed>0.8</speed>
</trkpt>
<trkpt lat="33.5637984" lon="-107.35330698">
<ele>1942.7</ele>
<time>2023-11-09T22:25:35Z</time>
<speed>0.6</speed>
</trkpt>
<trkpt lat="33.56377463" lon="-107.35327283">
<ele>1942.9</ele>
<time>2023-11-09T22:25:44Z</time>
<speed>1</speed>
</trkpt>
<trkpt lat="33.56375017" lon="-107.35323857">
<ele>1943</ele>
<time>2023-11-09T22:25:48Z</time>
<speed>0.6</speed>
</trkpt>
<trkpt lat="33.56372952" lon="-107.35319156">
<ele>1943.2</ele>
<time>2023-11-09T22:25:58Z</time>
<speed>1</speed>
</trkpt>
<trkpt lat="33.56370726" lon="-107.35315092">
<ele>1943.9</ele>
<time>2023-11-09T22:26:03Z</time>
<speed>1</speed>
</trkpt>
<trkpt lat="33.56368852" lon="-107.35311408">
<ele>1944</ele>
<time>2023-11-09T22:26:07Z</time>
<speed>1</speed>
</trkpt>
<trkpt lat="33.56366211" lon="-107.35307288">
<ele>1945.3</ele>
<time>2023-11-09T22:26:11Z</time>
<speed>1</speed>
</trkpt>
<trkpt lat="33.56363734" lon="-107.35303802">
<ele>1945.4</ele>
<time>2023-11-09T22:26:15Z</time>
<speed>1</speed>
</trkpt>
<trkpt lat="33.56362022" lon="-107.3529961">
<ele>1945.9</ele>
<time>2023-11-09T22:26:19Z</time>
<speed>1.1</speed>
</trkpt>
<trkpt lat="33.56360034" lon="-107.35295824">
<ele>1945.8</ele>
<time>2023-11-09T22:26:23Z</time>
<speed>1</speed>
</trkpt>
<trkpt lat="33.56357423" lon="-107.35292528">
<ele>1941.8</ele>
<time>2023-11-09T22:26:29Z</time>
<speed>0.9</speed>
</trkpt>
<trkpt lat="33.56355202" lon="-107.35288888">
<ele>1941.9</ele>
<time>2023-11-09T22:26:34Z</time>
<speed>0.9</speed>
</trkpt>
<trkpt lat="33.56353305" lon="-107.35284913">
<ele>1941.4</ele>
<time>2023-11-09T22:26:39Z</time>
<speed>0.9</speed>
</trkpt>
<trkpt lat="33.56350188" lon="-107.35282059">
<ele>1941.6</ele>
<time>2023-11-09T22:26:43Z</time>
<speed>1</speed>
</trkpt>
<trkpt lat="33.56347866" lon="-107.35278059">
<ele>1942.2</ele>
<time>2023-11-09T22:26:47Z</time>
<speed>1</speed>
</trkpt>
<trkpt lat="33.56345276" lon="-107.35273724">
<ele>1943.4</ele>
<time>2023-11-09T22:26:51Z</time>
<speed>1.1</speed>
</trkpt>
<trkpt lat="33.56341947" lon="-107.35269963">
<ele>1943.4</ele>
<time>2023-11-09T22:26:55Z</time>
<speed>1</speed>
</trkpt>
<trkpt lat="33.56339139" lon="-107.35266232">
<ele>1944.3</ele>
<time>2023-11-09T22:26:59Z</time>
<speed>0.7</speed>
</trkpt>
<trkpt lat="33.56338842" lon="-107.35265485">
<ele>1942.6</ele>
<time>2023-11-09T22:27:25Z</time>
<speed>0</speed>
</trkpt>
</trkseg>
</trk>
</gpx>
